<?xml version="1.0" encoding="UTF-8" standalone="no" ?>
<gpx xmlns="http://www.topografix.com/GPX/1/1" xmlns:xsi="http://www.w3.org/2001/XMLSchema-instance" xsi:schemaLocation="http://www.topografix.com/GPX/1/1 http://www.topografix.com/GPX/1/1/gpx.xsd" version="1.1" creator="VisuGPX - https://www.visugpx.com">
  <metadata>
    <name>Chanu 25km</name>
  </metadata>
  <trk>
    <name><![CDATA[Chanu 25km_1]]></name>
    <trkseg>
      <trkpt lat="48.74855" lon="-0.57245">
        <ele>104.4</ele>
        <time>2011-05-09T13:17:20Z</time>
      </trkpt>
      <trkpt lat="48.74854" lon="-0.5725">
        <ele>104.4</ele>
        <time>2011-05-09T13:17:21Z</time>
      </trkpt>
      <trkpt lat="48.74855" lon="-0.57266">
        <ele>111.2</ele>
        <time>2011-05-09T13:17:34Z</time>
      </trkpt>
      <trkpt lat="48.74855" lon="-0.57265">
        <ele>116.4</ele>
        <time>2011-05-09T13:17:35Z</time>
      </trkpt>
      <trkpt lat="48.74855" lon="-0.57266">
        <ele>122.2</ele>
        <time>2011-05-09T13:17:36Z</time>
      </trkpt>
      <trkpt lat="48.74855" lon="-0.57267">
        <ele>128</ele>
        <time>2011-05-09T13:17:37Z</time>
      </trkpt>
      <trkpt lat="48.74856" lon="-0.57268">
        <ele>132.8</ele>
        <time>2011-05-09T13:17:38Z</time>
      </trkpt>
      <trkpt lat="48.74856" lon="-0.57268">
        <ele>137.6</ele>
        <time>2011-05-09T13:17:39Z</time>
      </trkpt>
      <trkpt lat="48.74857" lon="-0.57265">
        <ele>142.4</ele>
        <time>2011-05-09T13:17:40Z</time>
      </trkpt>
      <trkpt lat="48.74857" lon="-0.57265">
        <ele>147.2</ele>
        <time>2011-05-09T13:17:41Z</time>
      </trkpt>
      <trkpt lat="48.74857" lon="-0.57266">
        <ele>151</ele>
        <time>2011-05-09T13:17:42Z</time>
      </trkpt>
      <trkpt lat="48.74857" lon="-0.57266">
        <ele>155</ele>
        <time>2011-05-09T13:17:43Z</time>
      </trkpt>
      <trkpt lat="48.74857" lon="-0.57267">
        <ele>160.2</ele>
        <time>2011-05-09T13:17:44Z</time>
      </trkpt>
      <trkpt lat="48.74858" lon="-0.57267">
        <ele>164.6</ele>
        <time>2011-05-09T13:17:45Z</time>
      </trkpt>
      <trkpt lat="48.74858" lon="-0.57268">
        <ele>168.4</ele>
        <time>2011-05-09T13:17:46Z</time>
      </trkpt>
      <trkpt lat="48.74858" lon="-0.57269">
        <ele>172.6</ele>
        <time>2011-05-09T13:17:47Z</time>
      </trkpt>
      <trkpt lat="48.74858" lon="-0.57269">
        <ele>172.2</ele>
        <time>2011-05-09T13:17:48Z</time>
      </trkpt>
      <trkpt lat="48.7487" lon="-0.57279">
        <ele>172.2</ele>
        <time>2011-05-09T13:18:20Z</time>
      </trkpt>
      <trkpt lat="48.74924" lon="-0.57226">
        <ele>172.2</ele>
        <time>2011-05-09T13:19:07Z</time>
      </trkpt>
      <trkpt lat="48.74908" lon="-0.57245">
        <ele>176</ele>
        <time>2011-05-09T13:19:13Z</time>
      </trkpt>
      <trkpt lat="48.74907" lon="-0.57246">
        <ele>180</ele>
        <time>2011-05-09T13:19:14Z</time>
      </trkpt>
      <trkpt lat="48.74905" lon="-0.57247">
        <ele>183.8</ele>
        <time>2011-05-09T13:19:15Z</time>
      </trkpt>
      <trkpt lat="48.74904" lon="-0.57247">
        <ele>187.2</ele>
        <time>2011-05-09T13:19:16Z</time>
      </trkpt>
      <trkpt lat="48.74903" lon="-0.57248">
        <ele>190.4</ele>
        <time>2011-05-09T13:19:17Z</time>
      </trkpt>
      <trkpt lat="48.74901" lon="-0.57248">
        <ele>196.2</ele>
        <time>2011-05-09T13:19:19Z</time>
      </trkpt>
      <trkpt lat="48.749" lon="-0.57248">
        <ele>199.6</ele>
        <time>2011-05-09T13:19:20Z</time>
      </trkpt>
      <trkpt lat="48.74897" lon="-0.57237">
        <ele>204.4</ele>
        <time>2011-05-09T13:19:22Z</time>
      </trkpt>
      <trkpt lat="48.74894" lon="-0.57231">
        <ele>209.2</ele>
        <time>2011-05-09T13:19:24Z</time>
      </trkpt>
      <trkpt lat="48.74893" lon="-0.57229">
        <ele>214</ele>
        <time>2011-05-09T13:19:26Z</time>
      </trkpt>
      <trkpt lat="48.74872" lon="-0.57226">
        <ele>218.4</ele>
        <time>2011-05-09T13:19:28Z</time>
      </trkpt>
      <trkpt lat="48.74851" lon="-0.57224">
        <ele>221.2</ele>
        <time>2011-05-09T13:19:30Z</time>
      </trkpt>
      <trkpt lat="48.74837" lon="-0.57222">
        <ele>223.2</ele>
        <time>2011-05-09T13:19:33Z</time>
      </trkpt>
      <trkpt lat="48.74819" lon="-0.57216">
        <ele>223.6</ele>
        <time>2011-05-09T13:20:00Z</time>
      </trkpt>
      <trkpt lat="48.74823" lon="-0.57211">
        <ele>224.2</ele>
        <time>2011-05-09T13:20:32Z</time>
      </trkpt>
      <trkpt lat="48.74825" lon="-0.5721">
        <ele>223.2</ele>
        <time>2011-05-09T13:21:06Z</time>
      </trkpt>
      <trkpt lat="48.74825" lon="-0.57211">
        <ele>222.6</ele>
        <time>2011-05-09T13:21:38Z</time>
      </trkpt>
      <trkpt lat="48.74824" lon="-0.57211">
        <ele>223.2</ele>
        <time>2011-05-09T13:22:13Z</time>
      </trkpt>
      <trkpt lat="48.7482" lon="-0.57213">
        <ele>222.2</ele>
        <time>2011-05-09T13:22:49Z</time>
      </trkpt>
      <trkpt lat="48.74818" lon="-0.57214">
        <ele>222.6</ele>
        <time>2011-05-09T13:23:30Z</time>
      </trkpt>
      <trkpt lat="48.74815" lon="-0.57215">
        <ele>221.8</ele>
        <time>2011-05-09T13:24:07Z</time>
      </trkpt>
      <trkpt lat="48.74815" lon="-0.57215">
        <ele>222.6</ele>
        <time>2011-05-09T13:24:37Z</time>
      </trkpt>
      <trkpt lat="48.74813" lon="-0.57215">
        <ele>222.6</ele>
        <time>2011-05-09T13:25:10Z</time>
      </trkpt>
      <trkpt lat="48.74811" lon="-0.57215">
        <ele>221.2</ele>
        <time>2011-05-09T13:25:41Z</time>
      </trkpt>
      <trkpt lat="48.7481" lon="-0.57216">
        <ele>220.8</ele>
        <time>2011-05-09T13:26:14Z</time>
      </trkpt>
      <trkpt lat="48.74809" lon="-0.57216">
        <ele>220.8</ele>
        <time>2011-05-09T13:26:56Z</time>
      </trkpt>
      <trkpt lat="48.74809" lon="-0.57216">
        <ele>219.8</ele>
        <time>2011-05-09T13:27:35Z</time>
      </trkpt>
      <trkpt lat="48.74809" lon="-0.57216">
        <ele>219.8</ele>
        <time>2011-05-09T13:28:16Z</time>
      </trkpt>
      <trkpt lat="48.74808" lon="-0.57216">
        <ele>219.8</ele>
        <time>2011-05-09T13:28:47Z</time>
      </trkpt>
      <trkpt lat="48.74805" lon="-0.57224">
        <ele>218.8</ele>
        <time>2011-05-09T13:29:09Z</time>
      </trkpt>
      <trkpt lat="48.74805" lon="-0.57224">
        <ele>218.8</ele>
        <time>2011-05-09T13:29:51Z</time>
      </trkpt>
      <trkpt lat="48.74805" lon="-0.57225">
        <ele>208.8</ele>
        <time>2011-05-09T13:30:16Z</time>
      </trkpt>
      <trkpt lat="48.74805" lon="-0.57225">
        <ele>220.8</ele>
        <time>2011-05-09T13:30:17Z</time>
      </trkpt>
      <trkpt lat="48.74805" lon="-0.57225">
        <ele>217.4</ele>
        <time>2011-05-09T13:30:18Z</time>
      </trkpt>
      <trkpt lat="48.74805" lon="-0.57225">
        <ele>223.2</ele>
        <time>2011-05-09T13:30:34Z</time>
      </trkpt>
      <trkpt lat="48.74805" lon="-0.57225">
        <ele>218.8</ele>
        <time>2011-05-09T13:30:35Z</time>
      </trkpt>
      <trkpt lat="48.74805" lon="-0.57225">
        <ele>215.4</ele>
        <time>2011-05-09T13:30:38Z</time>
      </trkpt>
      <trkpt lat="48.74805" lon="-0.57225">
        <ele>219.4</ele>
        <time>2011-05-09T13:30:42Z</time>
      </trkpt>
      <trkpt lat="48.74805" lon="-0.57225">
        <ele>209.8</ele>
        <time>2011-05-09T13:30:46Z</time>
      </trkpt>
      <trkpt lat="48.74805" lon="-0.57225">
        <ele>217</ele>
        <time>2011-05-09T13:30:47Z</time>
      </trkpt>
      <trkpt lat="48.74805" lon="-0.57225">
        <ele>222.6</ele>
        <time>2011-05-09T13:30:49Z</time>
      </trkpt>
      <trkpt lat="48.74805" lon="-0.57225">
        <ele>218.8</ele>
        <time>2011-05-09T13:30:50Z</time>
      </trkpt>
      <trkpt lat="48.74805" lon="-0.57225">
        <ele>222.2</ele>
        <time>2011-05-09T13:30:55Z</time>
      </trkpt>
      <trkpt lat="48.74805" lon="-0.57225">
        <ele>220.8</ele>
        <time>2011-05-09T13:30:56Z</time>
      </trkpt>
      <trkpt lat="48.74805" lon="-0.57225">
        <ele>229</ele>
        <time>2011-05-09T13:31:00Z</time>
      </trkpt>
      <trkpt lat="48.74805" lon="-0.57225">
        <ele>218.8</ele>
        <time>2011-05-09T13:31:01Z</time>
      </trkpt>
      <trkpt lat="48.74805" lon="-0.57225">
        <ele>218.8</ele>
        <time>2011-05-09T13:31:18Z</time>
      </trkpt>
      <trkpt lat="48.74795" lon="-0.57219">
        <ele>220.2</ele>
        <time>2011-05-09T13:31:35Z</time>
      </trkpt>
      <trkpt lat="48.7478" lon="-0.57207">
        <ele>220.2</ele>
        <time>2011-05-09T13:31:58Z</time>
      </trkpt>
      <trkpt lat="48.74776" lon="-0.57214">
        <ele>219.4</ele>
        <time>2011-05-09T13:32:02Z</time>
      </trkpt>
      <trkpt lat="48.74775" lon="-0.5722">
        <ele>220.8</ele>
        <time>2011-05-09T13:32:04Z</time>
      </trkpt>
      <trkpt lat="48.74772" lon="-0.57234">
        <ele>220.8</ele>
        <time>2011-05-09T13:32:15Z</time>
      </trkpt>
      <trkpt lat="48.7477" lon="-0.5724">
        <ele>220.8</ele>
        <time>2011-05-09T13:32:19Z</time>
      </trkpt>
      <trkpt lat="48.74743" lon="-0.57308">
        <ele>220.2</ele>
        <time>2011-05-09T13:32:37Z</time>
      </trkpt>
      <trkpt lat="48.74715" lon="-0.5738">
        <ele>222.2</ele>
        <time>2011-05-09T13:32:54Z</time>
      </trkpt>
      <trkpt lat="48.74691" lon="-0.57446">
        <ele>224.2</ele>
        <time>2011-05-09T13:33:10Z</time>
      </trkpt>
      <trkpt lat="48.74662" lon="-0.57514">
        <ele>224.6</ele>
        <time>2011-05-09T13:33:27Z</time>
      </trkpt>
      <trkpt lat="48.74636" lon="-0.57582">
        <ele>225.6</ele>
        <time>2011-05-09T13:33:43Z</time>
      </trkpt>
      <trkpt lat="48.74614" lon="-0.57649">
        <ele>226.6</ele>
        <time>2011-05-09T13:34:00Z</time>
      </trkpt>
      <trkpt lat="48.74582" lon="-0.57727">
        <ele>224.6</ele>
        <time>2011-05-09T13:34:16Z</time>
      </trkpt>
      <trkpt lat="48.74553" lon="-0.57804">
        <ele>224.2</ele>
        <time>2011-05-09T13:34:33Z</time>
      </trkpt>
      <trkpt lat="48.74522" lon="-0.57883">
        <ele>224.6</ele>
        <time>2011-05-09T13:34:51Z</time>
      </trkpt>
      <trkpt lat="48.74487" lon="-0.57973">
        <ele>224.6</ele>
        <time>2011-05-09T13:35:11Z</time>
      </trkpt>
      <trkpt lat="48.74455" lon="-0.58051">
        <ele>224.2</ele>
        <time>2011-05-09T13:35:28Z</time>
      </trkpt>
      <trkpt lat="48.74421" lon="-0.58127">
        <ele>224.6</ele>
        <time>2011-05-09T13:35:46Z</time>
      </trkpt>
      <trkpt lat="48.74394" lon="-0.58184">
        <ele>224.2</ele>
        <time>2011-05-09T13:36:01Z</time>
      </trkpt>
      <trkpt lat="48.74384" lon="-0.58206">
        <ele>225</ele>
        <time>2011-05-09T13:36:14Z</time>
      </trkpt>
      <trkpt lat="48.74364" lon="-0.58245">
        <ele>225</ele>
        <time>2011-05-09T13:36:29Z</time>
      </trkpt>
      <trkpt lat="48.74343" lon="-0.58285">
        <ele>225</ele>
        <time>2011-05-09T13:36:47Z</time>
      </trkpt>
      <trkpt lat="48.74327" lon="-0.58321">
        <ele>225</ele>
        <time>2011-05-09T13:36:57Z</time>
      </trkpt>
      <trkpt lat="48.74297" lon="-0.58386">
        <ele>226</ele>
        <time>2011-05-09T13:37:12Z</time>
      </trkpt>
      <trkpt lat="48.74265" lon="-0.58457">
        <ele>226.6</ele>
        <time>2011-05-09T13:37:30Z</time>
      </trkpt>
      <trkpt lat="48.74231" lon="-0.58532">
        <ele>227</ele>
        <time>2011-05-09T13:37:47Z</time>
      </trkpt>
      <trkpt lat="48.74188" lon="-0.58599">
        <ele>226</ele>
        <time>2011-05-09T13:38:04Z</time>
      </trkpt>
      <trkpt lat="48.7414" lon="-0.58659">
        <ele>226</ele>
        <time>2011-05-09T13:38:20Z</time>
      </trkpt>
      <trkpt lat="48.74137" lon="-0.58663">
        <ele>226.6</ele>
        <time>2011-05-09T13:38:21Z</time>
      </trkpt>
      <trkpt lat="48.74088" lon="-0.58725">
        <ele>226</ele>
        <time>2011-05-09T13:38:37Z</time>
      </trkpt>
      <trkpt lat="48.74044" lon="-0.58783">
        <ele>225</ele>
        <time>2011-05-09T13:38:52Z</time>
      </trkpt>
      <trkpt lat="48.74031" lon="-0.58805">
        <ele>224.2</ele>
        <time>2011-05-09T13:38:56Z</time>
      </trkpt>
      <trkpt lat="48.74029" lon="-0.58811">
        <ele>224.2</ele>
        <time>2011-05-09T13:38:57Z</time>
      </trkpt>
      <trkpt lat="48.74025" lon="-0.58822">
        <ele>223.6</ele>
        <time>2011-05-09T13:38:59Z</time>
      </trkpt>
      <trkpt lat="48.74024" lon="-0.58828">
        <ele>224.6</ele>
        <time>2011-05-09T13:39:00Z</time>
      </trkpt>
      <trkpt lat="48.74002" lon="-0.58936">
        <ele>224.6</ele>
        <time>2011-05-09T13:39:19Z</time>
      </trkpt>
      <trkpt lat="48.73978" lon="-0.59051">
        <ele>225</ele>
        <time>2011-05-09T13:39:40Z</time>
      </trkpt>
      <trkpt lat="48.73963" lon="-0.59117">
        <ele>225.6</ele>
        <time>2011-05-09T13:39:53Z</time>
      </trkpt>
      <trkpt lat="48.73935" lon="-0.59187">
        <ele>226.6</ele>
        <time>2011-05-09T13:40:09Z</time>
      </trkpt>
      <trkpt lat="48.73918" lon="-0.59241">
        <ele>226.6</ele>
        <time>2011-05-09T13:40:22Z</time>
      </trkpt>
      <trkpt lat="48.73889" lon="-0.59293">
        <ele>226.6</ele>
        <time>2011-05-09T13:40:35Z</time>
      </trkpt>
      <trkpt lat="48.73852" lon="-0.5937">
        <ele>227.4</ele>
        <time>2011-05-09T13:40:53Z</time>
      </trkpt>
      <trkpt lat="48.73818" lon="-0.5946">
        <ele>228</ele>
        <time>2011-05-09T13:41:13Z</time>
      </trkpt>
      <trkpt lat="48.73788" lon="-0.59548">
        <ele>228.4</ele>
        <time>2011-05-09T13:41:31Z</time>
      </trkpt>
      <trkpt lat="48.73749" lon="-0.59631">
        <ele>227.4</ele>
        <time>2011-05-09T13:41:49Z</time>
      </trkpt>
      <trkpt lat="48.73709" lon="-0.59708">
        <ele>228</ele>
        <time>2011-05-09T13:42:06Z</time>
      </trkpt>
      <trkpt lat="48.73671" lon="-0.5978">
        <ele>228</ele>
        <time>2011-05-09T13:42:23Z</time>
      </trkpt>
      <trkpt lat="48.73626" lon="-0.5985">
        <ele>228.4</ele>
        <time>2011-05-09T13:42:42Z</time>
      </trkpt>
      <trkpt lat="48.73605" lon="-0.59901">
        <ele>229</ele>
        <time>2011-05-09T13:42:57Z</time>
      </trkpt>
      <trkpt lat="48.73629" lon="-0.59953">
        <ele>228</ele>
        <time>2011-05-09T13:43:08Z</time>
      </trkpt>
      <trkpt lat="48.73598" lon="-0.59989">
        <ele>229</ele>
        <time>2011-05-09T13:43:19Z</time>
      </trkpt>
      <trkpt lat="48.73568" lon="-0.60048">
        <ele>229.4</ele>
        <time>2011-05-09T13:43:34Z</time>
      </trkpt>
      <trkpt lat="48.73541" lon="-0.60126">
        <ele>230.4</ele>
        <time>2011-05-09T13:43:52Z</time>
      </trkpt>
      <trkpt lat="48.73511" lon="-0.60192">
        <ele>230.8</ele>
        <time>2011-05-09T13:44:08Z</time>
      </trkpt>
      <trkpt lat="48.735" lon="-0.60257">
        <ele>230.8</ele>
        <time>2011-05-09T13:44:23Z</time>
      </trkpt>
      <trkpt lat="48.73491" lon="-0.60324">
        <ele>229.8</ele>
        <time>2011-05-09T13:44:37Z</time>
      </trkpt>
      <trkpt lat="48.73479" lon="-0.60409">
        <ele>229.8</ele>
        <time>2011-05-09T13:44:53Z</time>
      </trkpt>
      <trkpt lat="48.73463" lon="-0.60477">
        <ele>229</ele>
        <time>2011-05-09T13:45:07Z</time>
      </trkpt>
      <trkpt lat="48.73436" lon="-0.60545">
        <ele>229</ele>
        <time>2011-05-09T13:45:23Z</time>
      </trkpt>
      <trkpt lat="48.73413" lon="-0.60625">
        <ele>228.4</ele>
        <time>2011-05-09T13:45:39Z</time>
      </trkpt>
      <trkpt lat="48.73408" lon="-0.60649">
        <ele>228.4</ele>
        <time>2011-05-09T13:45:43Z</time>
      </trkpt>
      <trkpt lat="48.73402" lon="-0.60667">
        <ele>228</ele>
        <time>2011-05-09T13:45:46Z</time>
      </trkpt>
      <trkpt lat="48.734" lon="-0.60673">
        <ele>228</ele>
        <time>2011-05-09T13:45:47Z</time>
      </trkpt>
      <trkpt lat="48.73377" lon="-0.60749">
        <ele>227</ele>
        <time>2011-05-09T13:46:02Z</time>
      </trkpt>
      <trkpt lat="48.7334" lon="-0.60796">
        <ele>226.6</ele>
        <time>2011-05-09T13:46:16Z</time>
      </trkpt>
      <trkpt lat="48.73309" lon="-0.60852">
        <ele>226</ele>
        <time>2011-05-09T13:46:28Z</time>
      </trkpt>
      <trkpt lat="48.73293" lon="-0.6092">
        <ele>225.6</ele>
        <time>2011-05-09T13:46:42Z</time>
      </trkpt>
      <trkpt lat="48.73306" lon="-0.60985">
        <ele>226</ele>
        <time>2011-05-09T13:46:55Z</time>
      </trkpt>
      <trkpt lat="48.73299" lon="-0.61021">
        <ele>225.6</ele>
        <time>2011-05-09T13:47:01Z</time>
      </trkpt>
      <trkpt lat="48.73285" lon="-0.61088">
        <ele>225.6</ele>
        <time>2011-05-09T13:47:14Z</time>
      </trkpt>
      <trkpt lat="48.7326" lon="-0.61146">
        <ele>225.6</ele>
        <time>2011-05-09T13:47:28Z</time>
      </trkpt>
      <trkpt lat="48.73234" lon="-0.61205">
        <ele>227.4</ele>
        <time>2011-05-09T13:47:43Z</time>
      </trkpt>
      <trkpt lat="48.73232" lon="-0.61228">
        <ele>228</ele>
        <time>2011-05-09T13:47:51Z</time>
      </trkpt>
      <trkpt lat="48.73233" lon="-0.6123">
        <ele>228.4</ele>
        <time>2011-05-09T13:47:52Z</time>
      </trkpt>
      <trkpt lat="48.73234" lon="-0.61231">
        <ele>227.4</ele>
        <time>2011-05-09T13:47:53Z</time>
      </trkpt>
      <trkpt lat="48.73236" lon="-0.61231">
        <ele>227.4</ele>
        <time>2011-05-09T13:47:54Z</time>
      </trkpt>
      <trkpt lat="48.73238" lon="-0.61231">
        <ele>227.4</ele>
        <time>2011-05-09T13:47:55Z</time>
      </trkpt>
      <trkpt lat="48.73241" lon="-0.61231">
        <ele>227.4</ele>
        <time>2011-05-09T13:47:56Z</time>
      </trkpt>
      <trkpt lat="48.73254" lon="-0.61238">
        <ele>225.6</ele>
        <time>2011-05-09T13:48:00Z</time>
      </trkpt>
      <trkpt lat="48.73286" lon="-0.61268">
        <ele>222.2</ele>
        <time>2011-05-09T13:48:06Z</time>
      </trkpt>
      <trkpt lat="48.73299" lon="-0.61279">
        <ele>221.2</ele>
        <time>2011-05-09T13:48:08Z</time>
      </trkpt>
      <trkpt lat="48.73306" lon="-0.61283">
        <ele>220.8</ele>
        <time>2011-05-09T13:48:09Z</time>
      </trkpt>
      <trkpt lat="48.73313" lon="-0.61286">
        <ele>221.2</ele>
        <time>2011-05-09T13:48:10Z</time>
      </trkpt>
      <trkpt lat="48.73375" lon="-0.613">
        <ele>220.2</ele>
        <time>2011-05-09T13:48:19Z</time>
      </trkpt>
      <trkpt lat="48.7338" lon="-0.61302">
        <ele>220.2</ele>
        <time>2011-05-09T13:48:20Z</time>
      </trkpt>
      <trkpt lat="48.73385" lon="-0.61305">
        <ele>220.2</ele>
        <time>2011-05-09T13:48:21Z</time>
      </trkpt>
      <trkpt lat="48.7339" lon="-0.6131">
        <ele>220.2</ele>
        <time>2011-05-09T13:48:22Z</time>
      </trkpt>
      <trkpt lat="48.73394" lon="-0.61315">
        <ele>220.8</ele>
        <time>2011-05-09T13:48:23Z</time>
      </trkpt>
      <trkpt lat="48.73398" lon="-0.6132">
        <ele>220.2</ele>
        <time>2011-05-09T13:48:24Z</time>
      </trkpt>
      <trkpt lat="48.73428" lon="-0.61381">
        <ele>222.2</ele>
        <time>2011-05-09T13:48:36Z</time>
      </trkpt>
      <trkpt lat="48.73453" lon="-0.61439">
        <ele>224.6</ele>
        <time>2011-05-09T13:48:51Z</time>
      </trkpt>
      <trkpt lat="48.73475" lon="-0.61485">
        <ele>228</ele>
        <time>2011-05-09T13:49:05Z</time>
      </trkpt>
      <trkpt lat="48.73491" lon="-0.61511">
        <ele>231.8</ele>
        <time>2011-05-09T13:49:15Z</time>
      </trkpt>
      <trkpt lat="48.73517" lon="-0.61541">
        <ele>231.4</ele>
        <time>2011-05-09T13:49:29Z</time>
      </trkpt>
      <trkpt lat="48.73548" lon="-0.61569">
        <ele>232.8</ele>
        <time>2011-05-09T13:49:44Z</time>
      </trkpt>
      <trkpt lat="48.73582" lon="-0.616">
        <ele>235.2</ele>
        <time>2011-05-09T13:50:01Z</time>
      </trkpt>
      <trkpt lat="48.73617" lon="-0.6163">
        <ele>237.2</ele>
        <time>2011-05-09T13:50:18Z</time>
      </trkpt>
      <trkpt lat="48.73651" lon="-0.6166">
        <ele>237.6</ele>
        <time>2011-05-09T13:50:32Z</time>
      </trkpt>
      <trkpt lat="48.73698" lon="-0.61702">
        <ele>238.6</ele>
        <time>2011-05-09T13:50:51Z</time>
      </trkpt>
      <trkpt lat="48.73727" lon="-0.61728">
        <ele>242.4</ele>
        <time>2011-05-09T13:51:02Z</time>
      </trkpt>
      <trkpt lat="48.73729" lon="-0.61729">
        <ele>239</ele>
        <time>2011-05-09T13:51:03Z</time>
      </trkpt>
      <trkpt lat="48.7376" lon="-0.61754">
        <ele>240</ele>
        <time>2011-05-09T13:51:18Z</time>
      </trkpt>
      <trkpt lat="48.73766" lon="-0.61758">
        <ele>240</ele>
        <time>2011-05-09T13:51:22Z</time>
      </trkpt>
      <trkpt lat="48.73768" lon="-0.61761">
        <ele>241</ele>
        <time>2011-05-09T13:51:23Z</time>
      </trkpt>
      <trkpt lat="48.73768" lon="-0.61764">
        <ele>240.4</ele>
        <time>2011-05-09T13:51:24Z</time>
      </trkpt>
      <trkpt lat="48.73768" lon="-0.61768">
        <ele>241</ele>
        <time>2011-05-09T13:51:25Z</time>
      </trkpt>
      <trkpt lat="48.73768" lon="-0.61773">
        <ele>240.4</ele>
        <time>2011-05-09T13:51:26Z</time>
      </trkpt>
      <trkpt lat="48.73767" lon="-0.61777">
        <ele>240.4</ele>
        <time>2011-05-09T13:51:27Z</time>
      </trkpt>
      <trkpt lat="48.73766" lon="-0.61782">
        <ele>240</ele>
        <time>2011-05-09T13:51:28Z</time>
      </trkpt>
      <trkpt lat="48.73766" lon="-0.61787">
        <ele>240.4</ele>
        <time>2011-05-09T13:51:29Z</time>
      </trkpt>
      <trkpt lat="48.73758" lon="-0.61876">
        <ele>242.4</ele>
        <time>2011-05-09T13:51:48Z</time>
      </trkpt>
      <trkpt lat="48.73756" lon="-0.61952">
        <ele>244.8</ele>
        <time>2011-05-09T13:52:05Z</time>
      </trkpt>
      <trkpt lat="48.73756" lon="-0.62023">
        <ele>246.8</ele>
        <time>2011-05-09T13:52:24Z</time>
      </trkpt>
      <trkpt lat="48.73762" lon="-0.62078">
        <ele>249.2</ele>
        <time>2011-05-09T13:52:41Z</time>
      </trkpt>
      <trkpt lat="48.73762" lon="-0.62134">
        <ele>251.6</ele>
        <time>2011-05-09T13:52:59Z</time>
      </trkpt>
      <trkpt lat="48.73756" lon="-0.62176">
        <ele>253.4</ele>
        <time>2011-05-09T13:53:13Z</time>
      </trkpt>
      <trkpt lat="48.7375" lon="-0.62237">
        <ele>255.4</ele>
        <time>2011-05-09T13:53:32Z</time>
      </trkpt>
      <trkpt lat="48.73746" lon="-0.62297">
        <ele>258.2</ele>
        <time>2011-05-09T13:53:51Z</time>
      </trkpt>
      <trkpt lat="48.73742" lon="-0.62364">
        <ele>259.6</ele>
        <time>2011-05-09T13:54:12Z</time>
      </trkpt>
      <trkpt lat="48.73737" lon="-0.62416">
        <ele>262.6</ele>
        <time>2011-05-09T13:54:28Z</time>
      </trkpt>
      <trkpt lat="48.73731" lon="-0.62478">
        <ele>264.6</ele>
        <time>2011-05-09T13:54:47Z</time>
      </trkpt>
      <trkpt lat="48.73727" lon="-0.62528">
        <ele>266.4</ele>
        <time>2011-05-09T13:55:03Z</time>
      </trkpt>
      <trkpt lat="48.73727" lon="-0.6258">
        <ele>267.8</ele>
        <time>2011-05-09T13:55:19Z</time>
      </trkpt>
      <trkpt lat="48.73727" lon="-0.62634">
        <ele>269.8</ele>
        <time>2011-05-09T13:55:34Z</time>
      </trkpt>
      <trkpt lat="48.73731" lon="-0.62686">
        <ele>271.8</ele>
        <time>2011-05-09T13:55:50Z</time>
      </trkpt>
      <trkpt lat="48.73738" lon="-0.6274">
        <ele>274.6</ele>
        <time>2011-05-09T13:56:07Z</time>
      </trkpt>
      <trkpt lat="48.73743" lon="-0.62767">
        <ele>283.2</ele>
        <time>2011-05-09T13:56:15Z</time>
      </trkpt>
      <trkpt lat="48.73743" lon="-0.62769">
        <ele>275.6</ele>
        <time>2011-05-09T13:56:16Z</time>
      </trkpt>
      <trkpt lat="48.73748" lon="-0.6279">
        <ele>271.2</ele>
        <time>2011-05-09T13:56:23Z</time>
      </trkpt>
      <trkpt lat="48.73749" lon="-0.62793">
        <ele>278</ele>
        <time>2011-05-09T13:56:24Z</time>
      </trkpt>
      <trkpt lat="48.73751" lon="-0.62799">
        <ele>274.6</ele>
        <time>2011-05-09T13:56:26Z</time>
      </trkpt>
      <trkpt lat="48.73751" lon="-0.62803">
        <ele>275</ele>
        <time>2011-05-09T13:56:27Z</time>
      </trkpt>
      <trkpt lat="48.73767" lon="-0.62866">
        <ele>276</ele>
        <time>2011-05-09T13:56:42Z</time>
      </trkpt>
      <trkpt lat="48.73778" lon="-0.62939">
        <ele>277.4</ele>
        <time>2011-05-09T13:56:57Z</time>
      </trkpt>
      <trkpt lat="48.73781" lon="-0.63005">
        <ele>280.8</ele>
        <time>2011-05-09T13:57:11Z</time>
      </trkpt>
      <trkpt lat="48.73777" lon="-0.63067">
        <ele>283.8</ele>
        <time>2011-05-09T13:57:26Z</time>
      </trkpt>
      <trkpt lat="48.73766" lon="-0.63115">
        <ele>283.8</ele>
        <time>2011-05-09T13:57:38Z</time>
      </trkpt>
      <trkpt lat="48.73759" lon="-0.63122">
        <ele>282.8</ele>
        <time>2011-05-09T13:57:41Z</time>
      </trkpt>
      <trkpt lat="48.73749" lon="-0.63129">
        <ele>280.4</ele>
        <time>2011-05-09T13:57:44Z</time>
      </trkpt>
      <trkpt lat="48.73736" lon="-0.63145">
        <ele>277.4</ele>
        <time>2011-05-09T13:57:47Z</time>
      </trkpt>
      <trkpt lat="48.73723" lon="-0.63157">
        <ele>274.2</ele>
        <time>2011-05-09T13:57:49Z</time>
      </trkpt>
      <trkpt lat="48.73702" lon="-0.63173">
        <ele>270.2</ele>
        <time>2011-05-09T13:57:51Z</time>
      </trkpt>
      <trkpt lat="48.73681" lon="-0.63189">
        <ele>267.4</ele>
        <time>2011-05-09T13:57:53Z</time>
      </trkpt>
      <trkpt lat="48.73672" lon="-0.63197">
        <ele>267.8</ele>
        <time>2011-05-09T13:57:54Z</time>
      </trkpt>
      <trkpt lat="48.7365" lon="-0.63218">
        <ele>271.8</ele>
        <time>2011-05-09T13:57:57Z</time>
      </trkpt>
      <trkpt lat="48.73636" lon="-0.63229">
        <ele>273.6</ele>
        <time>2011-05-09T13:58:00Z</time>
      </trkpt>
      <trkpt lat="48.73583" lon="-0.63268">
        <ele>273.2</ele>
        <time>2011-05-09T13:58:16Z</time>
      </trkpt>
      <trkpt lat="48.73572" lon="-0.63266">
        <ele>272.6</ele>
        <time>2011-05-09T13:58:19Z</time>
      </trkpt>
      <trkpt lat="48.73569" lon="-0.63262">
        <ele>272.6</ele>
        <time>2011-05-09T13:58:20Z</time>
      </trkpt>
      <trkpt lat="48.73562" lon="-0.63251">
        <ele>271.8</ele>
        <time>2011-05-09T13:58:22Z</time>
      </trkpt>
      <trkpt lat="48.73555" lon="-0.63238">
        <ele>269.8</ele>
        <time>2011-05-09T13:58:24Z</time>
      </trkpt>
      <trkpt lat="48.73533" lon="-0.63198">
        <ele>267.4</ele>
        <time>2011-05-09T13:58:29Z</time>
      </trkpt>
      <trkpt lat="48.73513" lon="-0.63163">
        <ele>266</ele>
        <time>2011-05-09T13:58:33Z</time>
      </trkpt>
      <trkpt lat="48.73453" lon="-0.63051">
        <ele>262.6</ele>
        <time>2011-05-09T13:58:46Z</time>
      </trkpt>
      <trkpt lat="48.73441" lon="-0.63032">
        <ele>264.6</ele>
        <time>2011-05-09T13:58:49Z</time>
      </trkpt>
      <trkpt lat="48.73399" lon="-0.62975">
        <ele>267</ele>
        <time>2011-05-09T13:59:03Z</time>
      </trkpt>
      <trkpt lat="48.73363" lon="-0.6296">
        <ele>266.4</ele>
        <time>2011-05-09T13:59:16Z</time>
      </trkpt>
      <trkpt lat="48.73336" lon="-0.63006">
        <ele>267</ele>
        <time>2011-05-09T13:59:29Z</time>
      </trkpt>
      <trkpt lat="48.73302" lon="-0.63073">
        <ele>267.8</ele>
        <time>2011-05-09T13:59:47Z</time>
      </trkpt>
      <trkpt lat="48.73279" lon="-0.63122">
        <ele>268.8</ele>
        <time>2011-05-09T14:00:01Z</time>
      </trkpt>
      <trkpt lat="48.73253" lon="-0.63143">
        <ele>269.8</ele>
        <time>2011-05-09T14:00:15Z</time>
      </trkpt>
      <trkpt lat="48.73235" lon="-0.63135">
        <ele>267.8</ele>
        <time>2011-05-09T14:00:21Z</time>
      </trkpt>
      <trkpt lat="48.73194" lon="-0.63112">
        <ele>264.6</ele>
        <time>2011-05-09T14:00:30Z</time>
      </trkpt>
      <trkpt lat="48.73169" lon="-0.631">
        <ele>262.2</ele>
        <time>2011-05-09T14:00:34Z</time>
      </trkpt>
      <trkpt lat="48.7316" lon="-0.63095">
        <ele>261.2</ele>
        <time>2011-05-09T14:00:36Z</time>
      </trkpt>
      <trkpt lat="48.73156" lon="-0.63094">
        <ele>261.2</ele>
        <time>2011-05-09T14:00:37Z</time>
      </trkpt>
      <trkpt lat="48.73152" lon="-0.63092">
        <ele>260.6</ele>
        <time>2011-05-09T14:00:38Z</time>
      </trkpt>
      <trkpt lat="48.7315" lon="-0.63091">
        <ele>260.2</ele>
        <time>2011-05-09T14:00:39Z</time>
      </trkpt>
      <trkpt lat="48.73148" lon="-0.6309">
        <ele>259.6</ele>
        <time>2011-05-09T14:00:40Z</time>
      </trkpt>
      <trkpt lat="48.73143" lon="-0.63086">
        <ele>259.2</ele>
        <time>2011-05-09T14:00:52Z</time>
      </trkpt>
      <trkpt lat="48.73143" lon="-0.63086">
        <ele>260.2</ele>
        <time>2011-05-09T14:01:19Z</time>
      </trkpt>
      <trkpt lat="48.73143" lon="-0.63086">
        <ele>258.8</ele>
        <time>2011-05-09T14:01:52Z</time>
      </trkpt>
      <trkpt lat="48.73138" lon="-0.63084">
        <ele>257.8</ele>
        <time>2011-05-09T14:02:23Z</time>
      </trkpt>
      <trkpt lat="48.73129" lon="-0.63081">
        <ele>256.4</ele>
        <time>2011-05-09T14:02:26Z</time>
      </trkpt>
      <trkpt lat="48.73123" lon="-0.63081">
        <ele>254.8</ele>
        <time>2011-05-09T14:02:28Z</time>
      </trkpt>
      <trkpt lat="48.7312" lon="-0.63082">
        <ele>254.4</ele>
        <time>2011-05-09T14:02:29Z</time>
      </trkpt>
      <trkpt lat="48.73117" lon="-0.63085">
        <ele>253.4</ele>
        <time>2011-05-09T14:02:30Z</time>
      </trkpt>
      <trkpt lat="48.73112" lon="-0.63092">
        <ele>252.4</ele>
        <time>2011-05-09T14:02:32Z</time>
      </trkpt>
      <trkpt lat="48.73061" lon="-0.63164">
        <ele>250.6</ele>
        <time>2011-05-09T14:02:46Z</time>
      </trkpt>
      <trkpt lat="48.73045" lon="-0.63185">
        <ele>248.6</ele>
        <time>2011-05-09T14:02:51Z</time>
      </trkpt>
      <trkpt lat="48.73001" lon="-0.63189">
        <ele>248.6</ele>
        <time>2011-05-09T14:03:02Z</time>
      </trkpt>
      <trkpt lat="48.72979" lon="-0.63191">
        <ele>251</ele>
        <time>2011-05-09T14:03:16Z</time>
      </trkpt>
      <trkpt lat="48.72959" lon="-0.63193">
        <ele>252</ele>
        <time>2011-05-09T14:03:29Z</time>
      </trkpt>
      <trkpt lat="48.72934" lon="-0.63193">
        <ele>253</ele>
        <time>2011-05-09T14:03:45Z</time>
      </trkpt>
      <trkpt lat="48.72928" lon="-0.63194">
        <ele>254</ele>
        <time>2011-05-09T14:03:50Z</time>
      </trkpt>
      <trkpt lat="48.72905" lon="-0.63195">
        <ele>256.4</ele>
        <time>2011-05-09T14:04:05Z</time>
      </trkpt>
      <trkpt lat="48.72884" lon="-0.63195">
        <ele>257.2</ele>
        <time>2011-05-09T14:04:18Z</time>
      </trkpt>
      <trkpt lat="48.7286" lon="-0.63196">
        <ele>258.2</ele>
        <time>2011-05-09T14:04:30Z</time>
      </trkpt>
      <trkpt lat="48.72849" lon="-0.63219">
        <ele>259.2</ele>
        <time>2011-05-09T14:04:42Z</time>
      </trkpt>
      <trkpt lat="48.72854" lon="-0.63263">
        <ele>259.6</ele>
        <time>2011-05-09T14:04:57Z</time>
      </trkpt>
      <trkpt lat="48.7286" lon="-0.63313">
        <ele>260.2</ele>
        <time>2011-05-09T14:05:13Z</time>
      </trkpt>
      <trkpt lat="48.72861" lon="-0.63352">
        <ele>260.6</ele>
        <time>2011-05-09T14:05:26Z</time>
      </trkpt>
      <trkpt lat="48.72849" lon="-0.63407">
        <ele>262.2</ele>
        <time>2011-05-09T14:05:41Z</time>
      </trkpt>
      <trkpt lat="48.7285" lon="-0.63456">
        <ele>263</ele>
        <time>2011-05-09T14:05:57Z</time>
      </trkpt>
      <trkpt lat="48.72846" lon="-0.63493">
        <ele>265</ele>
        <time>2011-05-09T14:06:09Z</time>
      </trkpt>
      <trkpt lat="48.72848" lon="-0.63536">
        <ele>267</ele>
        <time>2011-05-09T14:06:21Z</time>
      </trkpt>
      <trkpt lat="48.72857" lon="-0.6357">
        <ele>268.8</ele>
        <time>2011-05-09T14:06:34Z</time>
      </trkpt>
      <trkpt lat="48.72867" lon="-0.63616">
        <ele>271.8</ele>
        <time>2011-05-09T14:06:50Z</time>
      </trkpt>
      <trkpt lat="48.72871" lon="-0.6366">
        <ele>273.2</ele>
        <time>2011-05-09T14:07:04Z</time>
      </trkpt>
      <trkpt lat="48.72866" lon="-0.6371">
        <ele>274.2</ele>
        <time>2011-05-09T14:07:20Z</time>
      </trkpt>
      <trkpt lat="48.7286" lon="-0.63757">
        <ele>273.2</ele>
        <time>2011-05-09T14:07:35Z</time>
      </trkpt>
      <trkpt lat="48.72853" lon="-0.63788">
        <ele>272.2</ele>
        <time>2011-05-09T14:07:42Z</time>
      </trkpt>
      <trkpt lat="48.72848" lon="-0.6384">
        <ele>269.4</ele>
        <time>2011-05-09T14:07:49Z</time>
      </trkpt>
      <trkpt lat="48.72852" lon="-0.6389">
        <ele>267</ele>
        <time>2011-05-09T14:07:56Z</time>
      </trkpt>
      <trkpt lat="48.72874" lon="-0.63944">
        <ele>269.4</ele>
        <time>2011-05-09T14:08:07Z</time>
      </trkpt>
      <trkpt lat="48.72871" lon="-0.63983">
        <ele>269.8</ele>
        <time>2011-05-09T14:08:22Z</time>
      </trkpt>
      <trkpt lat="48.72868" lon="-0.64012">
        <ele>271.2</ele>
        <time>2011-05-09T14:08:35Z</time>
      </trkpt>
      <trkpt lat="48.72862" lon="-0.64045">
        <ele>273.2</ele>
        <time>2011-05-09T14:08:49Z</time>
      </trkpt>
      <trkpt lat="48.72853" lon="-0.6409">
        <ele>274.2</ele>
        <time>2011-05-09T14:09:06Z</time>
      </trkpt>
      <trkpt lat="48.72844" lon="-0.64135">
        <ele>276.6</ele>
        <time>2011-05-09T14:09:21Z</time>
      </trkpt>
      <trkpt lat="48.72849" lon="-0.64173">
        <ele>278</ele>
        <time>2011-05-09T14:09:34Z</time>
      </trkpt>
      <trkpt lat="48.72851" lon="-0.6419">
        <ele>279</ele>
        <time>2011-05-09T14:09:40Z</time>
      </trkpt>
      <trkpt lat="48.72852" lon="-0.64222">
        <ele>279.4</ele>
        <time>2011-05-09T14:09:52Z</time>
      </trkpt>
      <trkpt lat="48.72853" lon="-0.64229">
        <ele>279.8</ele>
        <time>2011-05-09T14:09:55Z</time>
      </trkpt>
      <trkpt lat="48.72852" lon="-0.64261">
        <ele>278</ele>
        <time>2011-05-09T14:10:06Z</time>
      </trkpt>
      <trkpt lat="48.72846" lon="-0.64311">
        <ele>279.8</ele>
        <time>2011-05-09T14:10:21Z</time>
      </trkpt>
      <trkpt lat="48.72853" lon="-0.64363">
        <ele>279.8</ele>
        <time>2011-05-09T14:10:36Z</time>
      </trkpt>
      <trkpt lat="48.72863" lon="-0.64436">
        <ele>279.8</ele>
        <time>2011-05-09T14:10:51Z</time>
      </trkpt>
      <trkpt lat="48.72882" lon="-0.6451">
        <ele>276.6</ele>
        <time>2011-05-09T14:11:03Z</time>
      </trkpt>
      <trkpt lat="48.72886" lon="-0.64523">
        <ele>276.6</ele>
        <time>2011-05-09T14:11:05Z</time>
      </trkpt>
      <trkpt lat="48.72896" lon="-0.64553">
        <ele>275.6</ele>
        <time>2011-05-09T14:11:10Z</time>
      </trkpt>
      <trkpt lat="48.72899" lon="-0.64574">
        <ele>274.6</ele>
        <time>2011-05-09T14:11:13Z</time>
      </trkpt>
      <trkpt lat="48.72913" lon="-0.64653">
        <ele>271.8</ele>
        <time>2011-05-09T14:11:26Z</time>
      </trkpt>
      <trkpt lat="48.72915" lon="-0.64706">
        <ele>268.8</ele>
        <time>2011-05-09T14:11:33Z</time>
      </trkpt>
      <trkpt lat="48.72858" lon="-0.64778">
        <ele>267.8</ele>
        <time>2011-05-09T14:11:44Z</time>
      </trkpt>
      <trkpt lat="48.72843" lon="-0.64805">
        <ele>270.8</ele>
        <time>2011-05-09T14:11:52Z</time>
      </trkpt>
      <trkpt lat="48.72866" lon="-0.64847">
        <ele>273.2</ele>
        <time>2011-05-09T14:12:05Z</time>
      </trkpt>
      <trkpt lat="48.7287" lon="-0.64901">
        <ele>273.6</ele>
        <time>2011-05-09T14:12:19Z</time>
      </trkpt>
      <trkpt lat="48.72873" lon="-0.64959">
        <ele>275</ele>
        <time>2011-05-09T14:12:36Z</time>
      </trkpt>
      <trkpt lat="48.72876" lon="-0.65002">
        <ele>276</ele>
        <time>2011-05-09T14:12:49Z</time>
      </trkpt>
      <trkpt lat="48.72863" lon="-0.65051">
        <ele>278</ele>
        <time>2011-05-09T14:13:03Z</time>
      </trkpt>
      <trkpt lat="48.72847" lon="-0.65095">
        <ele>280.4</ele>
        <time>2011-05-09T14:13:18Z</time>
      </trkpt>
      <trkpt lat="48.72818" lon="-0.65156">
        <ele>282.8</ele>
        <time>2011-05-09T14:13:38Z</time>
      </trkpt>
      <trkpt lat="48.72804" lon="-0.65205">
        <ele>282.8</ele>
        <time>2011-05-09T14:13:52Z</time>
      </trkpt>
      <trkpt lat="48.72807" lon="-0.65263">
        <ele>282.8</ele>
        <time>2011-05-09T14:14:07Z</time>
      </trkpt>
      <trkpt lat="48.72815" lon="-0.6533">
        <ele>282.8</ele>
        <time>2011-05-09T14:14:23Z</time>
      </trkpt>
      <trkpt lat="48.72805" lon="-0.65409">
        <ele>281.4</ele>
        <time>2011-05-09T14:14:38Z</time>
      </trkpt>
      <trkpt lat="48.72799" lon="-0.65506">
        <ele>282.8</ele>
        <time>2011-05-09T14:14:56Z</time>
      </trkpt>
      <trkpt lat="48.72783" lon="-0.65574">
        <ele>284.6</ele>
        <time>2011-05-09T14:15:09Z</time>
      </trkpt>
      <trkpt lat="48.72783" lon="-0.6564">
        <ele>283.8</ele>
        <time>2011-05-09T14:15:23Z</time>
      </trkpt>
      <trkpt lat="48.72784" lon="-0.657">
        <ele>283.2</ele>
        <time>2011-05-09T14:15:37Z</time>
      </trkpt>
      <trkpt lat="48.72798" lon="-0.65782">
        <ele>282.8</ele>
        <time>2011-05-09T14:15:52Z</time>
      </trkpt>
      <trkpt lat="48.72785" lon="-0.65801">
        <ele>282.2</ele>
        <time>2011-05-09T14:16:02Z</time>
      </trkpt>
      <trkpt lat="48.72743" lon="-0.6578">
        <ele>283.8</ele>
        <time>2011-05-09T14:16:14Z</time>
      </trkpt>
      <trkpt lat="48.72704" lon="-0.65766">
        <ele>284.2</ele>
        <time>2011-05-09T14:16:28Z</time>
      </trkpt>
      <trkpt lat="48.72655" lon="-0.65745">
        <ele>286.2</ele>
        <time>2011-05-09T14:16:43Z</time>
      </trkpt>
      <trkpt lat="48.72618" lon="-0.65732">
        <ele>287</ele>
        <time>2011-05-09T14:16:56Z</time>
      </trkpt>
      <trkpt lat="48.7257" lon="-0.65714">
        <ele>286.2</ele>
        <time>2011-05-09T14:17:11Z</time>
      </trkpt>
      <trkpt lat="48.72522" lon="-0.65698">
        <ele>286.6</ele>
        <time>2011-05-09T14:17:26Z</time>
      </trkpt>
      <trkpt lat="48.72497" lon="-0.65696">
        <ele>289</ele>
        <time>2011-05-09T14:17:39Z</time>
      </trkpt>
      <trkpt lat="48.72495" lon="-0.65699">
        <ele>287.6</ele>
        <time>2011-05-09T14:17:52Z</time>
      </trkpt>
      <trkpt lat="48.72495" lon="-0.65699">
        <ele>288</ele>
        <time>2011-05-09T14:18:30Z</time>
      </trkpt>
      <trkpt lat="48.72495" lon="-0.65699">
        <ele>287.6</ele>
        <time>2011-05-09T14:19:06Z</time>
      </trkpt>
      <trkpt lat="48.72495" lon="-0.65699">
        <ele>284.2</ele>
        <time>2011-05-09T14:19:11Z</time>
      </trkpt>
      <trkpt lat="48.72495" lon="-0.65699">
        <ele>289.4</ele>
        <time>2011-05-09T14:19:12Z</time>
      </trkpt>
      <trkpt lat="48.72495" lon="-0.65699">
        <ele>287.6</ele>
        <time>2011-05-09T14:19:49Z</time>
      </trkpt>
      <trkpt lat="48.72495" lon="-0.65699">
        <ele>288</ele>
        <time>2011-05-09T14:20:20Z</time>
      </trkpt>
      <trkpt lat="48.72495" lon="-0.65699">
        <ele>287.6</ele>
        <time>2011-05-09T14:21:00Z</time>
      </trkpt>
      <trkpt lat="48.72495" lon="-0.65699">
        <ele>287.6</ele>
        <time>2011-05-09T14:21:38Z</time>
      </trkpt>
      <trkpt lat="48.72495" lon="-0.65699">
        <ele>287.6</ele>
        <time>2011-05-09T14:21:57Z</time>
      </trkpt>
      <trkpt lat="48.72494" lon="-0.65697">
        <ele>287</ele>
        <time>2011-05-09T14:22:10Z</time>
      </trkpt>
      <trkpt lat="48.72491" lon="-0.65693">
        <ele>288</ele>
        <time>2011-05-09T14:22:13Z</time>
      </trkpt>
      <trkpt lat="48.72485" lon="-0.65686">
        <ele>287.6</ele>
        <time>2011-05-09T14:22:18Z</time>
      </trkpt>
      <trkpt lat="48.72459" lon="-0.65675">
        <ele>290</ele>
        <time>2011-05-09T14:22:30Z</time>
      </trkpt>
      <trkpt lat="48.72433" lon="-0.65662">
        <ele>292.4</ele>
        <time>2011-05-09T14:22:42Z</time>
      </trkpt>
      <trkpt lat="48.724" lon="-0.65649">
        <ele>294.4</ele>
        <time>2011-05-09T14:22:57Z</time>
      </trkpt>
      <trkpt lat="48.72368" lon="-0.65642">
        <ele>294.8</ele>
        <time>2011-05-09T14:23:09Z</time>
      </trkpt>
      <trkpt lat="48.72326" lon="-0.65615">
        <ele>295.8</ele>
        <time>2011-05-09T14:23:26Z</time>
      </trkpt>
      <trkpt lat="48.72297" lon="-0.65588">
        <ele>297.2</ele>
        <time>2011-05-09T14:23:39Z</time>
      </trkpt>
      <trkpt lat="48.72271" lon="-0.65549">
        <ele>299.6</ele>
        <time>2011-05-09T14:23:54Z</time>
      </trkpt>
      <trkpt lat="48.72243" lon="-0.65518">
        <ele>301.6</ele>
        <time>2011-05-09T14:24:07Z</time>
      </trkpt>
      <trkpt lat="48.72212" lon="-0.65495">
        <ele>300.6</ele>
        <time>2011-05-09T14:24:21Z</time>
      </trkpt>
      <trkpt lat="48.72176" lon="-0.65459">
        <ele>300.6</ele>
        <time>2011-05-09T14:24:37Z</time>
      </trkpt>
      <trkpt lat="48.72141" lon="-0.65417">
        <ele>303</ele>
        <time>2011-05-09T14:24:55Z</time>
      </trkpt>
      <trkpt lat="48.721" lon="-0.65387">
        <ele>303</ele>
        <time>2011-05-09T14:25:09Z</time>
      </trkpt>
      <trkpt lat="48.72065" lon="-0.65385">
        <ele>302.4</ele>
        <time>2011-05-09T14:25:21Z</time>
      </trkpt>
      <trkpt lat="48.72026" lon="-0.65391">
        <ele>300</ele>
        <time>2011-05-09T14:25:35Z</time>
      </trkpt>
      <trkpt lat="48.71995" lon="-0.6543">
        <ele>299.6</ele>
        <time>2011-05-09T14:25:50Z</time>
      </trkpt>
      <trkpt lat="48.71996" lon="-0.65476">
        <ele>300.6</ele>
        <time>2011-05-09T14:26:04Z</time>
      </trkpt>
      <trkpt lat="48.71985" lon="-0.65544">
        <ele>301.6</ele>
        <time>2011-05-09T14:26:18Z</time>
      </trkpt>
      <trkpt lat="48.71977" lon="-0.65604">
        <ele>301</ele>
        <time>2011-05-09T14:26:33Z</time>
      </trkpt>
      <trkpt lat="48.71976" lon="-0.65677">
        <ele>299.2</ele>
        <time>2011-05-09T14:26:46Z</time>
      </trkpt>
      <trkpt lat="48.71989" lon="-0.6577">
        <ele>297.2</ele>
        <time>2011-05-09T14:27:01Z</time>
      </trkpt>
      <trkpt lat="48.71995" lon="-0.65825">
        <ele>299.2</ele>
        <time>2011-05-09T14:27:13Z</time>
      </trkpt>
      <trkpt lat="48.71992" lon="-0.65877">
        <ele>298.2</ele>
        <time>2011-05-09T14:27:28Z</time>
      </trkpt>
      <trkpt lat="48.71987" lon="-0.65938">
        <ele>299.6</ele>
        <time>2011-05-09T14:27:42Z</time>
      </trkpt>
      <trkpt lat="48.71976" lon="-0.66006">
        <ele>301.6</ele>
        <time>2011-05-09T14:27:57Z</time>
      </trkpt>
      <trkpt lat="48.71967" lon="-0.66063">
        <ele>302</ele>
        <time>2011-05-09T14:28:12Z</time>
      </trkpt>
      <trkpt lat="48.71952" lon="-0.66138">
        <ele>302</ele>
        <time>2011-05-09T14:28:28Z</time>
      </trkpt>
      <trkpt lat="48.71947" lon="-0.6619">
        <ele>303.4</ele>
        <time>2011-05-09T14:28:41Z</time>
      </trkpt>
      <trkpt lat="48.71941" lon="-0.66237">
        <ele>304.4</ele>
        <time>2011-05-09T14:28:54Z</time>
      </trkpt>
      <trkpt lat="48.71942" lon="-0.66318">
        <ele>303.4</ele>
        <time>2011-05-09T14:29:12Z</time>
      </trkpt>
      <trkpt lat="48.71942" lon="-0.66389">
        <ele>303</ele>
        <time>2011-05-09T14:29:25Z</time>
      </trkpt>
      <trkpt lat="48.71939" lon="-0.66469">
        <ele>302.4</ele>
        <time>2011-05-09T14:29:38Z</time>
      </trkpt>
      <trkpt lat="48.7194" lon="-0.66535">
        <ele>302.4</ele>
        <time>2011-05-09T14:29:51Z</time>
      </trkpt>
      <trkpt lat="48.71946" lon="-0.66595">
        <ele>303</ele>
        <time>2011-05-09T14:30:04Z</time>
      </trkpt>
      <trkpt lat="48.71947" lon="-0.66661">
        <ele>302.4</ele>
        <time>2011-05-09T14:30:18Z</time>
      </trkpt>
      <trkpt lat="48.71954" lon="-0.66747">
        <ele>301</ele>
        <time>2011-05-09T14:30:33Z</time>
      </trkpt>
      <trkpt lat="48.71961" lon="-0.6683">
        <ele>301</ele>
        <time>2011-05-09T14:30:47Z</time>
      </trkpt>
      <trkpt lat="48.71964" lon="-0.66908">
        <ele>297.6</ele>
        <time>2011-05-09T14:30:59Z</time>
      </trkpt>
      <trkpt lat="48.71963" lon="-0.66916">
        <ele>297.6</ele>
        <time>2011-05-09T14:31:00Z</time>
      </trkpt>
      <trkpt lat="48.71983" lon="-0.67">
        <ele>293.8</ele>
        <time>2011-05-09T14:31:13Z</time>
      </trkpt>
      <trkpt lat="48.72009" lon="-0.67058">
        <ele>291</ele>
        <time>2011-05-09T14:31:20Z</time>
      </trkpt>
      <trkpt lat="48.72012" lon="-0.67066">
        <ele>290.4</ele>
        <time>2011-05-09T14:31:21Z</time>
      </trkpt>
      <trkpt lat="48.72017" lon="-0.67087">
        <ele>289.4</ele>
        <time>2011-05-09T14:31:23Z</time>
      </trkpt>
      <trkpt lat="48.72028" lon="-0.6713">
        <ele>287.6</ele>
        <time>2011-05-09T14:31:27Z</time>
      </trkpt>
      <trkpt lat="48.72039" lon="-0.67184">
        <ele>288</ele>
        <time>2011-05-09T14:31:32Z</time>
      </trkpt>
      <trkpt lat="48.72043" lon="-0.67212">
        <ele>287.6</ele>
        <time>2011-05-09T14:31:35Z</time>
      </trkpt>
      <trkpt lat="48.72049" lon="-0.67289">
        <ele>287</ele>
        <time>2011-05-09T14:31:46Z</time>
      </trkpt>
      <trkpt lat="48.72051" lon="-0.67331">
        <ele>287.6</ele>
        <time>2011-05-09T14:31:54Z</time>
      </trkpt>
      <trkpt lat="48.7206" lon="-0.67348">
        <ele>288</ele>
        <time>2011-05-09T14:32:03Z</time>
      </trkpt>
      <trkpt lat="48.72082" lon="-0.67372">
        <ele>289.4</ele>
        <time>2011-05-09T14:32:16Z</time>
      </trkpt>
      <trkpt lat="48.72103" lon="-0.67389">
        <ele>289.4</ele>
        <time>2011-05-09T14:32:28Z</time>
      </trkpt>
      <trkpt lat="48.72136" lon="-0.67421">
        <ele>291</ele>
        <time>2011-05-09T14:32:40Z</time>
      </trkpt>
      <trkpt lat="48.72172" lon="-0.67435">
        <ele>287.6</ele>
        <time>2011-05-09T14:32:53Z</time>
      </trkpt>
      <trkpt lat="48.72182" lon="-0.67435">
        <ele>284.6</ele>
        <time>2011-05-09T14:32:56Z</time>
      </trkpt>
      <trkpt lat="48.72266" lon="-0.67476">
        <ele>283.2</ele>
        <time>2011-05-09T14:33:09Z</time>
      </trkpt>
      <trkpt lat="48.72314" lon="-0.675">
        <ele>281.4</ele>
        <time>2011-05-09T14:33:21Z</time>
      </trkpt>
      <trkpt lat="48.72318" lon="-0.67501">
        <ele>281.4</ele>
        <time>2011-05-09T14:33:22Z</time>
      </trkpt>
      <trkpt lat="48.72338" lon="-0.67504">
        <ele>279.8</ele>
        <time>2011-05-09T14:33:26Z</time>
      </trkpt>
      <trkpt lat="48.72375" lon="-0.67516">
        <ele>279.4</ele>
        <time>2011-05-09T14:33:38Z</time>
      </trkpt>
      <trkpt lat="48.72375" lon="-0.67515">
        <ele>279</ele>
        <time>2011-05-09T14:33:56Z</time>
      </trkpt>
      <trkpt lat="48.72375" lon="-0.67515">
        <ele>279.4</ele>
        <time>2011-05-09T14:34:29Z</time>
      </trkpt>
      <trkpt lat="48.72375" lon="-0.67515">
        <ele>279</ele>
        <time>2011-05-09T14:34:58Z</time>
      </trkpt>
      <trkpt lat="48.72375" lon="-0.67515">
        <ele>279.8</ele>
        <time>2011-05-09T14:35:37Z</time>
      </trkpt>
      <trkpt lat="48.72375" lon="-0.67515">
        <ele>279.4</ele>
        <time>2011-05-09T14:35:58Z</time>
      </trkpt>
      <trkpt lat="48.72375" lon="-0.67516">
        <ele>279.8</ele>
        <time>2011-05-09T14:36:28Z</time>
      </trkpt>
      <trkpt lat="48.72375" lon="-0.67516">
        <ele>279.4</ele>
        <time>2011-05-09T14:36:57Z</time>
      </trkpt>
      <trkpt lat="48.72375" lon="-0.67516">
        <ele>279.8</ele>
        <time>2011-05-09T14:37:20Z</time>
      </trkpt>
      <trkpt lat="48.72375" lon="-0.67516">
        <ele>280.4</ele>
        <time>2011-05-09T14:37:42Z</time>
      </trkpt>
      <trkpt lat="48.72387" lon="-0.67523">
        <ele>279.8</ele>
        <time>2011-05-09T14:37:54Z</time>
      </trkpt>
      <trkpt lat="48.72394" lon="-0.67527">
        <ele>280.4</ele>
        <time>2011-05-09T14:38:01Z</time>
      </trkpt>
      <trkpt lat="48.72411" lon="-0.67541">
        <ele>281.4</ele>
        <time>2011-05-09T14:38:16Z</time>
      </trkpt>
      <trkpt lat="48.72416" lon="-0.67548">
        <ele>281.8</ele>
        <time>2011-05-09T14:38:21Z</time>
      </trkpt>
      <trkpt lat="48.72422" lon="-0.67554">
        <ele>282.8</ele>
        <time>2011-05-09T14:38:24Z</time>
      </trkpt>
      <trkpt lat="48.72467" lon="-0.67583">
        <ele>283.8</ele>
        <time>2011-05-09T14:38:38Z</time>
      </trkpt>
      <trkpt lat="48.72512" lon="-0.67602">
        <ele>284.2</ele>
        <time>2011-05-09T14:38:52Z</time>
      </trkpt>
      <trkpt lat="48.72522" lon="-0.6761">
        <ele>284.2</ele>
        <time>2011-05-09T14:39:05Z</time>
      </trkpt>
      <trkpt lat="48.72528" lon="-0.67616">
        <ele>284.2</ele>
        <time>2011-05-09T14:39:25Z</time>
      </trkpt>
      <trkpt lat="48.72565" lon="-0.67654">
        <ele>285.2</ele>
        <time>2011-05-09T14:39:40Z</time>
      </trkpt>
      <trkpt lat="48.72584" lon="-0.67675">
        <ele>287</ele>
        <time>2011-05-09T14:39:49Z</time>
      </trkpt>
      <trkpt lat="48.7259" lon="-0.67679">
        <ele>285.6</ele>
        <time>2011-05-09T14:39:51Z</time>
      </trkpt>
      <trkpt lat="48.7261" lon="-0.67699">
        <ele>288</ele>
        <time>2011-05-09T14:40:02Z</time>
      </trkpt>
      <trkpt lat="48.72611" lon="-0.67709">
        <ele>287</ele>
        <time>2011-05-09T14:40:06Z</time>
      </trkpt>
      <trkpt lat="48.72608" lon="-0.67743">
        <ele>288</ele>
        <time>2011-05-09T14:40:15Z</time>
      </trkpt>
      <trkpt lat="48.7264" lon="-0.67758">
        <ele>288.6</ele>
        <time>2011-05-09T14:40:27Z</time>
      </trkpt>
      <trkpt lat="48.72661" lon="-0.67764">
        <ele>290</ele>
        <time>2011-05-09T14:40:38Z</time>
      </trkpt>
      <trkpt lat="48.72698" lon="-0.67777">
        <ele>290</ele>
        <time>2011-05-09T14:40:50Z</time>
      </trkpt>
      <trkpt lat="48.72727" lon="-0.67761">
        <ele>291</ele>
        <time>2011-05-09T14:41:01Z</time>
      </trkpt>
      <trkpt lat="48.72763" lon="-0.67739">
        <ele>292.4</ele>
        <time>2011-05-09T14:41:13Z</time>
      </trkpt>
      <trkpt lat="48.72792" lon="-0.67701">
        <ele>292.8</ele>
        <time>2011-05-09T14:41:28Z</time>
      </trkpt>
      <trkpt lat="48.72819" lon="-0.67659">
        <ele>289.4</ele>
        <time>2011-05-09T14:41:39Z</time>
      </trkpt>
      <trkpt lat="48.72839" lon="-0.67628">
        <ele>288</ele>
        <time>2011-05-09T14:41:44Z</time>
      </trkpt>
      <trkpt lat="48.72843" lon="-0.67621">
        <ele>288.6</ele>
        <time>2011-05-09T14:41:45Z</time>
      </trkpt>
      <trkpt lat="48.72847" lon="-0.67614">
        <ele>288.6</ele>
        <time>2011-05-09T14:41:46Z</time>
      </trkpt>
      <trkpt lat="48.7286" lon="-0.67588">
        <ele>285.6</ele>
        <time>2011-05-09T14:41:49Z</time>
      </trkpt>
      <trkpt lat="48.72899" lon="-0.67526">
        <ele>282.2</ele>
        <time>2011-05-09T14:41:56Z</time>
      </trkpt>
      <trkpt lat="48.72924" lon="-0.6749">
        <ele>280.8</ele>
        <time>2011-05-09T14:42:00Z</time>
      </trkpt>
      <trkpt lat="48.7295" lon="-0.67451">
        <ele>279.4</ele>
        <time>2011-05-09T14:42:04Z</time>
      </trkpt>
      <trkpt lat="48.72955" lon="-0.67439">
        <ele>278.4</ele>
        <time>2011-05-09T14:42:05Z</time>
      </trkpt>
      <trkpt lat="48.72959" lon="-0.67425">
        <ele>278</ele>
        <time>2011-05-09T14:42:06Z</time>
      </trkpt>
      <trkpt lat="48.72961" lon="-0.6741">
        <ele>277</ele>
        <time>2011-05-09T14:42:07Z</time>
      </trkpt>
      <trkpt lat="48.72963" lon="-0.67395">
        <ele>276.6</ele>
        <time>2011-05-09T14:42:08Z</time>
      </trkpt>
      <trkpt lat="48.72963" lon="-0.6738">
        <ele>275.6</ele>
        <time>2011-05-09T14:42:09Z</time>
      </trkpt>
      <trkpt lat="48.72966" lon="-0.67316">
        <ele>272.6</ele>
        <time>2011-05-09T14:42:13Z</time>
      </trkpt>
      <trkpt lat="48.72969" lon="-0.67285">
        <ele>270.8</ele>
        <time>2011-05-09T14:42:15Z</time>
      </trkpt>
      <trkpt lat="48.72984" lon="-0.67179">
        <ele>268.8</ele>
        <time>2011-05-09T14:42:22Z</time>
      </trkpt>
      <trkpt lat="48.72997" lon="-0.67031">
        <ele>268.4</ele>
        <time>2011-05-09T14:42:33Z</time>
      </trkpt>
      <trkpt lat="48.73019" lon="-0.66946">
        <ele>265.4</ele>
        <time>2011-05-09T14:42:40Z</time>
      </trkpt>
      <trkpt lat="48.73021" lon="-0.66933">
        <ele>265</ele>
        <time>2011-05-09T14:42:41Z</time>
      </trkpt>
      <trkpt lat="48.73022" lon="-0.6692">
        <ele>265</ele>
        <time>2011-05-09T14:42:42Z</time>
      </trkpt>
      <trkpt lat="48.73021" lon="-0.66907">
        <ele>264</ele>
        <time>2011-05-09T14:42:43Z</time>
      </trkpt>
      <trkpt lat="48.73021" lon="-0.66895">
        <ele>264</ele>
        <time>2011-05-09T14:42:44Z</time>
      </trkpt>
      <trkpt lat="48.73017" lon="-0.66824">
        <ele>265</ele>
        <time>2011-05-09T14:42:50Z</time>
      </trkpt>
      <trkpt lat="48.73018" lon="-0.66813">
        <ele>265</ele>
        <time>2011-05-09T14:42:51Z</time>
      </trkpt>
      <trkpt lat="48.73023" lon="-0.66784">
        <ele>264.6</ele>
        <time>2011-05-09T14:42:54Z</time>
      </trkpt>
      <trkpt lat="48.73026" lon="-0.66775">
        <ele>265</ele>
        <time>2011-05-09T14:42:55Z</time>
      </trkpt>
      <trkpt lat="48.73029" lon="-0.66767">
        <ele>265</ele>
        <time>2011-05-09T14:42:56Z</time>
      </trkpt>
      <trkpt lat="48.73032" lon="-0.66758">
        <ele>264.6</ele>
        <time>2011-05-09T14:42:57Z</time>
      </trkpt>
      <trkpt lat="48.73036" lon="-0.66751">
        <ele>264</ele>
        <time>2011-05-09T14:42:58Z</time>
      </trkpt>
      <trkpt lat="48.73041" lon="-0.66743">
        <ele>265</ele>
        <time>2011-05-09T14:42:59Z</time>
      </trkpt>
      <trkpt lat="48.73046" lon="-0.66737">
        <ele>264</ele>
        <time>2011-05-09T14:43:00Z</time>
      </trkpt>
      <trkpt lat="48.73123" lon="-0.66638">
        <ele>260.6</ele>
        <time>2011-05-09T14:43:14Z</time>
      </trkpt>
      <trkpt lat="48.73127" lon="-0.66628">
        <ele>260.6</ele>
        <time>2011-05-09T14:43:15Z</time>
      </trkpt>
      <trkpt lat="48.73155" lon="-0.6654">
        <ele>259.6</ele>
        <time>2011-05-09T14:43:24Z</time>
      </trkpt>
      <trkpt lat="48.7316" lon="-0.66427">
        <ele>258.8</ele>
        <time>2011-05-09T14:43:38Z</time>
      </trkpt>
      <trkpt lat="48.73151" lon="-0.66288">
        <ele>255.4</ele>
        <time>2011-05-09T14:43:53Z</time>
      </trkpt>
      <trkpt lat="48.73147" lon="-0.66131">
        <ele>254.4</ele>
        <time>2011-05-09T14:44:07Z</time>
      </trkpt>
      <trkpt lat="48.73154" lon="-0.66057">
        <ele>257.8</ele>
        <time>2011-05-09T14:44:16Z</time>
      </trkpt>
      <trkpt lat="48.73156" lon="-0.66049">
        <ele>256.8</ele>
        <time>2011-05-09T14:44:17Z</time>
      </trkpt>
      <trkpt lat="48.73158" lon="-0.66041">
        <ele>258.2</ele>
        <time>2011-05-09T14:44:18Z</time>
      </trkpt>
      <trkpt lat="48.73159" lon="-0.66033">
        <ele>258.8</ele>
        <time>2011-05-09T14:44:19Z</time>
      </trkpt>
      <trkpt lat="48.7316" lon="-0.66026">
        <ele>258.8</ele>
        <time>2011-05-09T14:44:20Z</time>
      </trkpt>
      <trkpt lat="48.73162" lon="-0.66018">
        <ele>259.2</ele>
        <time>2011-05-09T14:44:21Z</time>
      </trkpt>
      <trkpt lat="48.73164" lon="-0.66011">
        <ele>259.2</ele>
        <time>2011-05-09T14:44:22Z</time>
      </trkpt>
      <trkpt lat="48.73165" lon="-0.66003">
        <ele>260.2</ele>
        <time>2011-05-09T14:44:23Z</time>
      </trkpt>
      <trkpt lat="48.73167" lon="-0.65995">
        <ele>259.6</ele>
        <time>2011-05-09T14:44:24Z</time>
      </trkpt>
      <trkpt lat="48.73169" lon="-0.65988">
        <ele>260.2</ele>
        <time>2011-05-09T14:44:25Z</time>
      </trkpt>
      <trkpt lat="48.73177" lon="-0.65958">
        <ele>261.6</ele>
        <time>2011-05-09T14:44:29Z</time>
      </trkpt>
      <trkpt lat="48.73198" lon="-0.65893">
        <ele>265</ele>
        <time>2011-05-09T14:44:40Z</time>
      </trkpt>
      <trkpt lat="48.73225" lon="-0.65812">
        <ele>265.4</ele>
        <time>2011-05-09T14:44:56Z</time>
      </trkpt>
      <trkpt lat="48.73237" lon="-0.65771">
        <ele>270.2</ele>
        <time>2011-05-09T14:45:05Z</time>
      </trkpt>
      <trkpt lat="48.73238" lon="-0.65766">
        <ele>267</ele>
        <time>2011-05-09T14:45:06Z</time>
      </trkpt>
      <trkpt lat="48.73254" lon="-0.657">
        <ele>267.8</ele>
        <time>2011-05-09T14:45:22Z</time>
      </trkpt>
      <trkpt lat="48.73262" lon="-0.65633">
        <ele>270.8</ele>
        <time>2011-05-09T14:45:39Z</time>
      </trkpt>
      <trkpt lat="48.73263" lon="-0.6557">
        <ele>272.6</ele>
        <time>2011-05-09T14:45:54Z</time>
      </trkpt>
      <trkpt lat="48.73257" lon="-0.65508">
        <ele>274.6</ele>
        <time>2011-05-09T14:46:09Z</time>
      </trkpt>
      <trkpt lat="48.73246" lon="-0.65428">
        <ele>277</ele>
        <time>2011-05-09T14:46:26Z</time>
      </trkpt>
      <trkpt lat="48.73232" lon="-0.6532">
        <ele>275.6</ele>
        <time>2011-05-09T14:46:44Z</time>
      </trkpt>
      <trkpt lat="48.7323" lon="-0.65189">
        <ele>275.6</ele>
        <time>2011-05-09T14:47:00Z</time>
      </trkpt>
      <trkpt lat="48.73237" lon="-0.65134">
        <ele>274.6</ele>
        <time>2011-05-09T14:47:06Z</time>
      </trkpt>
      <trkpt lat="48.73287" lon="-0.64966">
        <ele>273.6</ele>
        <time>2011-05-09T14:47:24Z</time>
      </trkpt>
      <trkpt lat="48.73337" lon="-0.6482">
        <ele>274.2</ele>
        <time>2011-05-09T14:47:39Z</time>
      </trkpt>
      <trkpt lat="48.73383" lon="-0.64678">
        <ele>275.6</ele>
        <time>2011-05-09T14:47:54Z</time>
      </trkpt>
      <trkpt lat="48.73414" lon="-0.6455">
        <ele>275</ele>
        <time>2011-05-09T14:48:10Z</time>
      </trkpt>
      <trkpt lat="48.73439" lon="-0.64371">
        <ele>272.6</ele>
        <time>2011-05-09T14:48:28Z</time>
      </trkpt>
      <trkpt lat="48.73457" lon="-0.64195">
        <ele>270.2</ele>
        <time>2011-05-09T14:48:43Z</time>
      </trkpt>
      <trkpt lat="48.73489" lon="-0.64027">
        <ele>268.8</ele>
        <time>2011-05-09T14:48:58Z</time>
      </trkpt>
      <trkpt lat="48.73543" lon="-0.6391">
        <ele>267.4</ele>
        <time>2011-05-09T14:49:09Z</time>
      </trkpt>
      <trkpt lat="48.7361" lon="-0.63792">
        <ele>268.4</ele>
        <time>2011-05-09T14:49:23Z</time>
      </trkpt>
      <trkpt lat="48.7367" lon="-0.63688">
        <ele>270.2</ele>
        <time>2011-05-09T14:49:39Z</time>
      </trkpt>
      <trkpt lat="48.73735" lon="-0.63577">
        <ele>270.8</ele>
        <time>2011-05-09T14:49:56Z</time>
      </trkpt>
      <trkpt lat="48.73808" lon="-0.63496">
        <ele>270.8</ele>
        <time>2011-05-09T14:50:10Z</time>
      </trkpt>
      <trkpt lat="48.73886" lon="-0.63453">
        <ele>271.8</ele>
        <time>2011-05-09T14:50:23Z</time>
      </trkpt>
      <trkpt lat="48.7396" lon="-0.63413">
        <ele>274.2</ele>
        <time>2011-05-09T14:50:38Z</time>
      </trkpt>
      <trkpt lat="48.74002" lon="-0.63392">
        <ele>275</ele>
        <time>2011-05-09T14:50:50Z</time>
      </trkpt>
      <trkpt lat="48.74031" lon="-0.63376">
        <ele>276.6</ele>
        <time>2011-05-09T14:50:58Z</time>
      </trkpt>
      <trkpt lat="48.74034" lon="-0.63374">
        <ele>277</ele>
        <time>2011-05-09T14:50:59Z</time>
      </trkpt>
      <trkpt lat="48.74038" lon="-0.63371">
        <ele>277</ele>
        <time>2011-05-09T14:51:00Z</time>
      </trkpt>
      <trkpt lat="48.74042" lon="-0.63369">
        <ele>276.6</ele>
        <time>2011-05-09T14:51:01Z</time>
      </trkpt>
      <trkpt lat="48.74046" lon="-0.63367">
        <ele>277</ele>
        <time>2011-05-09T14:51:02Z</time>
      </trkpt>
      <trkpt lat="48.7405" lon="-0.63365">
        <ele>277.4</ele>
        <time>2011-05-09T14:51:03Z</time>
      </trkpt>
      <trkpt lat="48.74053" lon="-0.63363">
        <ele>277.4</ele>
        <time>2011-05-09T14:51:04Z</time>
      </trkpt>
      <trkpt lat="48.74091" lon="-0.63343">
        <ele>278.4</ele>
        <time>2011-05-09T14:51:16Z</time>
      </trkpt>
      <trkpt lat="48.74114" lon="-0.6333">
        <ele>279.8</ele>
        <time>2011-05-09T14:51:22Z</time>
      </trkpt>
      <trkpt lat="48.74165" lon="-0.63304">
        <ele>280.8</ele>
        <time>2011-05-09T14:51:37Z</time>
      </trkpt>
      <trkpt lat="48.74204" lon="-0.63285">
        <ele>280.8</ele>
        <time>2011-05-09T14:51:52Z</time>
      </trkpt>
      <trkpt lat="48.74234" lon="-0.63269">
        <ele>280.4</ele>
        <time>2011-05-09T14:52:05Z</time>
      </trkpt>
      <trkpt lat="48.74253" lon="-0.63262">
        <ele>278.4</ele>
        <time>2011-05-09T14:52:10Z</time>
      </trkpt>
      <trkpt lat="48.74296" lon="-0.63238">
        <ele>278</ele>
        <time>2011-05-09T14:52:19Z</time>
      </trkpt>
      <trkpt lat="48.743" lon="-0.63232">
        <ele>277.4</ele>
        <time>2011-05-09T14:52:20Z</time>
      </trkpt>
      <trkpt lat="48.74305" lon="-0.63227">
        <ele>277</ele>
        <time>2011-05-09T14:52:21Z</time>
      </trkpt>
      <trkpt lat="48.74317" lon="-0.63209">
        <ele>276.6</ele>
        <time>2011-05-09T14:52:24Z</time>
      </trkpt>
      <trkpt lat="48.74343" lon="-0.63167">
        <ele>275.6</ele>
        <time>2011-05-09T14:52:30Z</time>
      </trkpt>
      <trkpt lat="48.74357" lon="-0.63143">
        <ele>274.2</ele>
        <time>2011-05-09T14:52:33Z</time>
      </trkpt>
      <trkpt lat="48.74371" lon="-0.63118">
        <ele>274.2</ele>
        <time>2011-05-09T14:52:36Z</time>
      </trkpt>
      <trkpt lat="48.74377" lon="-0.63111">
        <ele>272.2</ele>
        <time>2011-05-09T14:52:37Z</time>
      </trkpt>
      <trkpt lat="48.74384" lon="-0.63106">
        <ele>272.2</ele>
        <time>2011-05-09T14:52:38Z</time>
      </trkpt>
      <trkpt lat="48.74391" lon="-0.63102">
        <ele>272.6</ele>
        <time>2011-05-09T14:52:39Z</time>
      </trkpt>
      <trkpt lat="48.74397" lon="-0.63096">
        <ele>272.2</ele>
        <time>2011-05-09T14:52:40Z</time>
      </trkpt>
      <trkpt lat="48.74403" lon="-0.63089">
        <ele>272.2</ele>
        <time>2011-05-09T14:52:41Z</time>
      </trkpt>
      <trkpt lat="48.74446" lon="-0.63039">
        <ele>271.8</ele>
        <time>2011-05-09T14:52:49Z</time>
      </trkpt>
      <trkpt lat="48.74487" lon="-0.6299">
        <ele>268.4</ele>
        <time>2011-05-09T14:52:56Z</time>
      </trkpt>
      <trkpt lat="48.74493" lon="-0.62983">
        <ele>268.4</ele>
        <time>2011-05-09T14:52:57Z</time>
      </trkpt>
      <trkpt lat="48.74547" lon="-0.62923">
        <ele>266</ele>
        <time>2011-05-09T14:53:05Z</time>
      </trkpt>
      <trkpt lat="48.74575" lon="-0.62893">
        <ele>264</ele>
        <time>2011-05-09T14:53:09Z</time>
      </trkpt>
      <trkpt lat="48.74626" lon="-0.62822">
        <ele>263</ele>
        <time>2011-05-09T14:53:19Z</time>
      </trkpt>
      <trkpt lat="48.7464" lon="-0.62805">
        <ele>263</ele>
        <time>2011-05-09T14:53:22Z</time>
      </trkpt>
      <trkpt lat="48.74645" lon="-0.62801">
        <ele>262.6</ele>
        <time>2011-05-09T14:53:23Z</time>
      </trkpt>
      <trkpt lat="48.74661" lon="-0.62789">
        <ele>262.2</ele>
        <time>2011-05-09T14:53:26Z</time>
      </trkpt>
      <trkpt lat="48.74666" lon="-0.62787">
        <ele>261.6</ele>
        <time>2011-05-09T14:53:27Z</time>
      </trkpt>
      <trkpt lat="48.74682" lon="-0.62781">
        <ele>261.2</ele>
        <time>2011-05-09T14:53:30Z</time>
      </trkpt>
      <trkpt lat="48.74686" lon="-0.6278">
        <ele>261.2</ele>
        <time>2011-05-09T14:53:31Z</time>
      </trkpt>
      <trkpt lat="48.74736" lon="-0.62772">
        <ele>260.6</ele>
        <time>2011-05-09T14:53:40Z</time>
      </trkpt>
      <trkpt lat="48.74746" lon="-0.62771">
        <ele>260.6</ele>
        <time>2011-05-09T14:53:42Z</time>
      </trkpt>
      <trkpt lat="48.74783" lon="-0.62771">
        <ele>259.2</ele>
        <time>2011-05-09T14:53:49Z</time>
      </trkpt>
      <trkpt lat="48.74857" lon="-0.6278">
        <ele>257.8</ele>
        <time>2011-05-09T14:54:03Z</time>
      </trkpt>
      <trkpt lat="48.7491" lon="-0.62789">
        <ele>256.4</ele>
        <time>2011-05-09T14:54:14Z</time>
      </trkpt>
      <trkpt lat="48.74918" lon="-0.62789">
        <ele>256.8</ele>
        <time>2011-05-09T14:54:16Z</time>
      </trkpt>
      <trkpt lat="48.74942" lon="-0.62793">
        <ele>255.8</ele>
        <time>2011-05-09T14:54:21Z</time>
      </trkpt>
      <trkpt lat="48.74947" lon="-0.62794">
        <ele>254.8</ele>
        <time>2011-05-09T14:54:22Z</time>
      </trkpt>
      <trkpt lat="48.74951" lon="-0.62794">
        <ele>254.8</ele>
        <time>2011-05-09T14:54:23Z</time>
      </trkpt>
      <trkpt lat="48.74974" lon="-0.62795">
        <ele>253</ele>
        <time>2011-05-09T14:54:28Z</time>
      </trkpt>
      <trkpt lat="48.74978" lon="-0.62794">
        <ele>253.4</ele>
        <time>2011-05-09T14:54:29Z</time>
      </trkpt>
      <trkpt lat="48.75004" lon="-0.62798">
        <ele>251.6</ele>
        <time>2011-05-09T14:54:40Z</time>
      </trkpt>
      <trkpt lat="48.75028" lon="-0.62794">
        <ele>250.6</ele>
        <time>2011-05-09T14:54:53Z</time>
      </trkpt>
      <trkpt lat="48.75053" lon="-0.62789">
        <ele>247.6</ele>
        <time>2011-05-09T14:54:59Z</time>
      </trkpt>
      <trkpt lat="48.75085" lon="-0.62783">
        <ele>244.8</ele>
        <time>2011-05-09T14:55:04Z</time>
      </trkpt>
      <trkpt lat="48.75092" lon="-0.62781">
        <ele>244.8</ele>
        <time>2011-05-09T14:55:05Z</time>
      </trkpt>
      <trkpt lat="48.75116" lon="-0.62776">
        <ele>243.4</ele>
        <time>2011-05-09T14:55:08Z</time>
      </trkpt>
      <trkpt lat="48.75123" lon="-0.62772">
        <ele>242.8</ele>
        <time>2011-05-09T14:55:09Z</time>
      </trkpt>
      <trkpt lat="48.75131" lon="-0.62767">
        <ele>242.4</ele>
        <time>2011-05-09T14:55:10Z</time>
      </trkpt>
      <trkpt lat="48.75138" lon="-0.6276">
        <ele>242.4</ele>
        <time>2011-05-09T14:55:11Z</time>
      </trkpt>
      <trkpt lat="48.75145" lon="-0.62751">
        <ele>241.4</ele>
        <time>2011-05-09T14:55:12Z</time>
      </trkpt>
      <trkpt lat="48.75151" lon="-0.62742">
        <ele>240.4</ele>
        <time>2011-05-09T14:55:13Z</time>
      </trkpt>
      <trkpt lat="48.75173" lon="-0.62698">
        <ele>237.2</ele>
        <time>2011-05-09T14:55:17Z</time>
      </trkpt>
      <trkpt lat="48.75199" lon="-0.62626">
        <ele>235.2</ele>
        <time>2011-05-09T14:55:23Z</time>
      </trkpt>
      <trkpt lat="48.75216" lon="-0.62558">
        <ele>231.4</ele>
        <time>2011-05-09T14:55:28Z</time>
      </trkpt>
      <trkpt lat="48.75222" lon="-0.62529">
        <ele>230.4</ele>
        <time>2011-05-09T14:55:30Z</time>
      </trkpt>
      <trkpt lat="48.75236" lon="-0.62467">
        <ele>226</ele>
        <time>2011-05-09T14:55:34Z</time>
      </trkpt>
      <trkpt lat="48.75248" lon="-0.6242">
        <ele>222.6</ele>
        <time>2011-05-09T14:55:37Z</time>
      </trkpt>
      <trkpt lat="48.75253" lon="-0.62406">
        <ele>221.8</ele>
        <time>2011-05-09T14:55:38Z</time>
      </trkpt>
      <trkpt lat="48.7526" lon="-0.62391">
        <ele>220.8</ele>
        <time>2011-05-09T14:55:39Z</time>
      </trkpt>
      <trkpt lat="48.75282" lon="-0.62353">
        <ele>218.8</ele>
        <time>2011-05-09T14:55:42Z</time>
      </trkpt>
      <trkpt lat="48.75299" lon="-0.62325">
        <ele>217</ele>
        <time>2011-05-09T14:55:45Z</time>
      </trkpt>
      <trkpt lat="48.7532" lon="-0.62302">
        <ele>215</ele>
        <time>2011-05-09T14:55:52Z</time>
      </trkpt>
      <trkpt lat="48.75337" lon="-0.62282">
        <ele>211.6</ele>
        <time>2011-05-09T14:56:00Z</time>
      </trkpt>
      <trkpt lat="48.75344" lon="-0.62275">
        <ele>210.2</ele>
        <time>2011-05-09T14:56:03Z</time>
      </trkpt>
      <trkpt lat="48.75366" lon="-0.62231">
        <ele>206.8</ele>
        <time>2011-05-09T14:56:12Z</time>
      </trkpt>
      <trkpt lat="48.75396" lon="-0.6215">
        <ele>204.4</ele>
        <time>2011-05-09T14:56:25Z</time>
      </trkpt>
      <trkpt lat="48.75399" lon="-0.62133">
        <ele>203</ele>
        <time>2011-05-09T14:56:29Z</time>
      </trkpt>
      <trkpt lat="48.75399" lon="-0.6213">
        <ele>203.4</ele>
        <time>2011-05-09T14:56:30Z</time>
      </trkpt>
      <trkpt lat="48.75405" lon="-0.62089">
        <ele>202</ele>
        <time>2011-05-09T14:56:43Z</time>
      </trkpt>
      <trkpt lat="48.75407" lon="-0.62073">
        <ele>201.6</ele>
        <time>2011-05-09T14:56:51Z</time>
      </trkpt>
      <trkpt lat="48.75407" lon="-0.62065">
        <ele>201.6</ele>
        <time>2011-05-09T14:57:01Z</time>
      </trkpt>
      <trkpt lat="48.75407" lon="-0.62057">
        <ele>202</ele>
        <time>2011-05-09T14:57:07Z</time>
      </trkpt>
      <trkpt lat="48.75407" lon="-0.62054">
        <ele>201.6</ele>
        <time>2011-05-09T14:57:08Z</time>
      </trkpt>
      <trkpt lat="48.75404" lon="-0.62025">
        <ele>203.4</ele>
        <time>2011-05-09T14:57:21Z</time>
      </trkpt>
      <trkpt lat="48.75403" lon="-0.61998">
        <ele>205.4</ele>
        <time>2011-05-09T14:57:35Z</time>
      </trkpt>
      <trkpt lat="48.75402" lon="-0.61995">
        <ele>206.4</ele>
        <time>2011-05-09T14:57:37Z</time>
      </trkpt>
      <trkpt lat="48.754" lon="-0.61981">
        <ele>206.8</ele>
        <time>2011-05-09T14:57:44Z</time>
      </trkpt>
      <trkpt lat="48.75398" lon="-0.61969">
        <ele>207.4</ele>
        <time>2011-05-09T14:57:52Z</time>
      </trkpt>
      <trkpt lat="48.75395" lon="-0.61947">
        <ele>209.8</ele>
        <time>2011-05-09T14:58:09Z</time>
      </trkpt>
      <trkpt lat="48.75388" lon="-0.61936">
        <ele>211.2</ele>
        <time>2011-05-09T14:58:25Z</time>
      </trkpt>
      <trkpt lat="48.75386" lon="-0.61936">
        <ele>211.2</ele>
        <time>2011-05-09T14:58:26Z</time>
      </trkpt>
      <trkpt lat="48.75375" lon="-0.61928">
        <ele>213.6</ele>
        <time>2011-05-09T14:58:44Z</time>
      </trkpt>
      <trkpt lat="48.75374" lon="-0.61927">
        <ele>213</ele>
        <time>2011-05-09T14:58:45Z</time>
      </trkpt>
      <trkpt lat="48.75365" lon="-0.61917">
        <ele>215</ele>
        <time>2011-05-09T14:59:07Z</time>
      </trkpt>
      <trkpt lat="48.75353" lon="-0.619">
        <ele>216.4</ele>
        <time>2011-05-09T14:59:24Z</time>
      </trkpt>
      <trkpt lat="48.75348" lon="-0.61892">
        <ele>217.8</ele>
        <time>2011-05-09T14:59:42Z</time>
      </trkpt>
      <trkpt lat="48.75341" lon="-0.61875">
        <ele>219.4</ele>
        <time>2011-05-09T14:59:55Z</time>
      </trkpt>
      <trkpt lat="48.75331" lon="-0.61855">
        <ele>220.8</ele>
        <time>2011-05-09T15:00:10Z</time>
      </trkpt>
      <trkpt lat="48.75319" lon="-0.61827">
        <ele>221.2</ele>
        <time>2011-05-09T15:00:23Z</time>
      </trkpt>
      <trkpt lat="48.75296" lon="-0.61781">
        <ele>218.8</ele>
        <time>2011-05-09T15:00:37Z</time>
      </trkpt>
      <trkpt lat="48.75281" lon="-0.61749">
        <ele>216.4</ele>
        <time>2011-05-09T15:00:42Z</time>
      </trkpt>
      <trkpt lat="48.75271" lon="-0.61734">
        <ele>215.4</ele>
        <time>2011-05-09T15:00:44Z</time>
      </trkpt>
      <trkpt lat="48.75262" lon="-0.6172">
        <ele>215</ele>
        <time>2011-05-09T15:00:46Z</time>
      </trkpt>
      <trkpt lat="48.75222" lon="-0.61667">
        <ele>214.6</ele>
        <time>2011-05-09T15:00:54Z</time>
      </trkpt>
      <trkpt lat="48.75217" lon="-0.61661">
        <ele>214.6</ele>
        <time>2011-05-09T15:00:55Z</time>
      </trkpt>
      <trkpt lat="48.75194" lon="-0.61608">
        <ele>215.4</ele>
        <time>2011-05-09T15:01:06Z</time>
      </trkpt>
      <trkpt lat="48.75182" lon="-0.61575">
        <ele>216.4</ele>
        <time>2011-05-09T15:01:17Z</time>
      </trkpt>
      <trkpt lat="48.75182" lon="-0.61575">
        <ele>216.4</ele>
        <time>2011-05-09T15:01:45Z</time>
      </trkpt>
      <trkpt lat="48.75182" lon="-0.61575">
        <ele>216.4</ele>
        <time>2011-05-09T15:02:17Z</time>
      </trkpt>
      <trkpt lat="48.75182" lon="-0.61575">
        <ele>216.4</ele>
        <time>2011-05-09T15:02:51Z</time>
      </trkpt>
      <trkpt lat="48.75182" lon="-0.61574">
        <ele>215.4</ele>
        <time>2011-05-09T15:03:27Z</time>
      </trkpt>
      <trkpt lat="48.75181" lon="-0.61574">
        <ele>215.4</ele>
        <time>2011-05-09T15:04:01Z</time>
      </trkpt>
      <trkpt lat="48.75181" lon="-0.61574">
        <ele>215</ele>
        <time>2011-05-09T15:04:34Z</time>
      </trkpt>
      <trkpt lat="48.75181" lon="-0.61574">
        <ele>216</ele>
        <time>2011-05-09T15:05:07Z</time>
      </trkpt>
      <trkpt lat="48.7518" lon="-0.61574">
        <ele>216</ele>
        <time>2011-05-09T15:05:46Z</time>
      </trkpt>
      <trkpt lat="48.7518" lon="-0.61574">
        <ele>215.4</ele>
        <time>2011-05-09T15:06:20Z</time>
      </trkpt>
      <trkpt lat="48.7518" lon="-0.61573">
        <ele>214.6</ele>
        <time>2011-05-09T15:06:57Z</time>
      </trkpt>
      <trkpt lat="48.7518" lon="-0.61573">
        <ele>214.6</ele>
        <time>2011-05-09T15:07:30Z</time>
      </trkpt>
      <trkpt lat="48.7518" lon="-0.61573">
        <ele>214</ele>
        <time>2011-05-09T15:08:03Z</time>
      </trkpt>
      <trkpt lat="48.7518" lon="-0.61573">
        <ele>214.6</ele>
        <time>2011-05-09T15:08:30Z</time>
      </trkpt>
      <trkpt lat="48.7518" lon="-0.61573">
        <ele>214.6</ele>
        <time>2011-05-09T15:08:58Z</time>
      </trkpt>
      <trkpt lat="48.7518" lon="-0.61573">
        <ele>214</ele>
        <time>2011-05-09T15:09:36Z</time>
      </trkpt>
      <trkpt lat="48.75179" lon="-0.61569">
        <ele>214.6</ele>
        <time>2011-05-09T15:10:14Z</time>
      </trkpt>
      <trkpt lat="48.75178" lon="-0.61567">
        <ele>215</ele>
        <time>2011-05-09T15:10:15Z</time>
      </trkpt>
      <trkpt lat="48.75178" lon="-0.61565">
        <ele>214.6</ele>
        <time>2011-05-09T15:10:16Z</time>
      </trkpt>
      <trkpt lat="48.75175" lon="-0.61558">
        <ele>214.6</ele>
        <time>2011-05-09T15:10:20Z</time>
      </trkpt>
      <trkpt lat="48.75174" lon="-0.61557">
        <ele>215.4</ele>
        <time>2011-05-09T15:10:21Z</time>
      </trkpt>
      <trkpt lat="48.75173" lon="-0.61556">
        <ele>215</ele>
        <time>2011-05-09T15:10:22Z</time>
      </trkpt>
      <trkpt lat="48.75172" lon="-0.61554">
        <ele>215.4</ele>
        <time>2011-05-09T15:10:23Z</time>
      </trkpt>
      <trkpt lat="48.75171" lon="-0.61553">
        <ele>215</ele>
        <time>2011-05-09T15:10:24Z</time>
      </trkpt>
      <trkpt lat="48.7517" lon="-0.61551">
        <ele>215.4</ele>
        <time>2011-05-09T15:10:25Z</time>
      </trkpt>
      <trkpt lat="48.7517" lon="-0.6155">
        <ele>216</ele>
        <time>2011-05-09T15:10:26Z</time>
      </trkpt>
      <trkpt lat="48.75169" lon="-0.61548">
        <ele>215</ele>
        <time>2011-05-09T15:10:27Z</time>
      </trkpt>
      <trkpt lat="48.75167" lon="-0.61547">
        <ele>215.4</ele>
        <time>2011-05-09T15:10:28Z</time>
      </trkpt>
      <trkpt lat="48.75166" lon="-0.61545">
        <ele>215.4</ele>
        <time>2011-05-09T15:10:29Z</time>
      </trkpt>
      <trkpt lat="48.75165" lon="-0.61544">
        <ele>215.4</ele>
        <time>2011-05-09T15:10:30Z</time>
      </trkpt>
      <trkpt lat="48.75164" lon="-0.61543">
        <ele>216</ele>
        <time>2011-05-09T15:10:31Z</time>
      </trkpt>
      <trkpt lat="48.75162" lon="-0.61542">
        <ele>215.4</ele>
        <time>2011-05-09T15:10:32Z</time>
      </trkpt>
      <trkpt lat="48.75161" lon="-0.61541">
        <ele>216</ele>
        <time>2011-05-09T15:10:33Z</time>
      </trkpt>
      <trkpt lat="48.7516" lon="-0.61539">
        <ele>216</ele>
        <time>2011-05-09T15:10:34Z</time>
      </trkpt>
      <trkpt lat="48.7514" lon="-0.61517">
        <ele>217</ele>
        <time>2011-05-09T15:10:48Z</time>
      </trkpt>
      <trkpt lat="48.7514" lon="-0.61514">
        <ele>217</ele>
        <time>2011-05-09T15:10:49Z</time>
      </trkpt>
      <trkpt lat="48.75139" lon="-0.61512">
        <ele>217.4</ele>
        <time>2011-05-09T15:10:50Z</time>
      </trkpt>
      <trkpt lat="48.75138" lon="-0.61509">
        <ele>216.4</ele>
        <time>2011-05-09T15:10:51Z</time>
      </trkpt>
      <trkpt lat="48.75137" lon="-0.61508">
        <ele>217.4</ele>
        <time>2011-05-09T15:10:52Z</time>
      </trkpt>
      <trkpt lat="48.75135" lon="-0.61506">
        <ele>217.4</ele>
        <time>2011-05-09T15:10:53Z</time>
      </trkpt>
      <trkpt lat="48.75134" lon="-0.61504">
        <ele>217.4</ele>
        <time>2011-05-09T15:10:54Z</time>
      </trkpt>
      <trkpt lat="48.75111" lon="-0.61477">
        <ele>217.8</ele>
        <time>2011-05-09T15:11:08Z</time>
      </trkpt>
      <trkpt lat="48.75086" lon="-0.61447">
        <ele>219.4</ele>
        <time>2011-05-09T15:11:24Z</time>
      </trkpt>
      <trkpt lat="48.75056" lon="-0.6141">
        <ele>220.8</ele>
        <time>2011-05-09T15:11:43Z</time>
      </trkpt>
      <trkpt lat="48.75029" lon="-0.61376">
        <ele>222.2</ele>
        <time>2011-05-09T15:12:00Z</time>
      </trkpt>
      <trkpt lat="48.75008" lon="-0.61347">
        <ele>223.2</ele>
        <time>2011-05-09T15:12:15Z</time>
      </trkpt>
      <trkpt lat="48.75004" lon="-0.61343">
        <ele>222.2</ele>
        <time>2011-05-09T15:12:20Z</time>
      </trkpt>
      <trkpt lat="48.75003" lon="-0.61344">
        <ele>221.8</ele>
        <time>2011-05-09T15:12:21Z</time>
      </trkpt>
      <trkpt lat="48.75001" lon="-0.61346">
        <ele>222.6</ele>
        <time>2011-05-09T15:12:22Z</time>
      </trkpt>
      <trkpt lat="48.7499" lon="-0.61358">
        <ele>222.2</ele>
        <time>2011-05-09T15:12:27Z</time>
      </trkpt>
      <trkpt lat="48.74977" lon="-0.61348">
        <ele>223.2</ele>
        <time>2011-05-09T15:12:34Z</time>
      </trkpt>
      <trkpt lat="48.74955" lon="-0.61306">
        <ele>222.6</ele>
        <time>2011-05-09T15:12:52Z</time>
      </trkpt>
      <trkpt lat="48.74933" lon="-0.61257">
        <ele>222.2</ele>
        <time>2011-05-09T15:13:11Z</time>
      </trkpt>
      <trkpt lat="48.74906" lon="-0.61223">
        <ele>221.2</ele>
        <time>2011-05-09T15:13:27Z</time>
      </trkpt>
      <trkpt lat="48.7488" lon="-0.61201">
        <ele>219.4</ele>
        <time>2011-05-09T15:13:44Z</time>
      </trkpt>
      <trkpt lat="48.74872" lon="-0.61199">
        <ele>219.4</ele>
        <time>2011-05-09T15:13:50Z</time>
      </trkpt>
      <trkpt lat="48.74875" lon="-0.61188">
        <ele>218.4</ele>
        <time>2011-05-09T15:13:55Z</time>
      </trkpt>
      <trkpt lat="48.74889" lon="-0.61175">
        <ele>218.8</ele>
        <time>2011-05-09T15:14:09Z</time>
      </trkpt>
      <trkpt lat="48.74889" lon="-0.61175">
        <ele>218.8</ele>
        <time>2011-05-09T15:14:40Z</time>
      </trkpt>
      <trkpt lat="48.74889" lon="-0.61175">
        <ele>218.4</ele>
        <time>2011-05-09T15:15:13Z</time>
      </trkpt>
      <trkpt lat="48.74889" lon="-0.61175">
        <ele>218.8</ele>
        <time>2011-05-09T15:15:45Z</time>
      </trkpt>
      <trkpt lat="48.74889" lon="-0.61176">
        <ele>218.4</ele>
        <time>2011-05-09T15:16:08Z</time>
      </trkpt>
      <trkpt lat="48.74889" lon="-0.61176">
        <ele>218.8</ele>
        <time>2011-05-09T15:16:36Z</time>
      </trkpt>
      <trkpt lat="48.74889" lon="-0.61176">
        <ele>218.4</ele>
        <time>2011-05-09T15:17:04Z</time>
      </trkpt>
      <trkpt lat="48.7489" lon="-0.61176">
        <ele>218.4</ele>
        <time>2011-05-09T15:17:30Z</time>
      </trkpt>
      <trkpt lat="48.74891" lon="-0.61175">
        <ele>219.4</ele>
        <time>2011-05-09T15:18:07Z</time>
      </trkpt>
      <trkpt lat="48.749" lon="-0.61162">
        <ele>218.4</ele>
        <time>2011-05-09T15:18:14Z</time>
      </trkpt>
      <trkpt lat="48.74927" lon="-0.61122">
        <ele>219.4</ele>
        <time>2011-05-09T15:18:29Z</time>
      </trkpt>
      <trkpt lat="48.74957" lon="-0.61083">
        <ele>220.2</ele>
        <time>2011-05-09T15:18:43Z</time>
      </trkpt>
      <trkpt lat="48.74989" lon="-0.61047">
        <ele>222.2</ele>
        <time>2011-05-09T15:18:56Z</time>
      </trkpt>
      <trkpt lat="48.7503" lon="-0.60992">
        <ele>221.2</ele>
        <time>2011-05-09T15:19:12Z</time>
      </trkpt>
      <trkpt lat="48.75076" lon="-0.60936">
        <ele>223.2</ele>
        <time>2011-05-09T15:19:29Z</time>
      </trkpt>
      <trkpt lat="48.75119" lon="-0.60893">
        <ele>223.2</ele>
        <time>2011-05-09T15:19:44Z</time>
      </trkpt>
      <trkpt lat="48.75155" lon="-0.60853">
        <ele>222.6</ele>
        <time>2011-05-09T15:19:57Z</time>
      </trkpt>
      <trkpt lat="48.75206" lon="-0.6082">
        <ele>222.2</ele>
        <time>2011-05-09T15:20:11Z</time>
      </trkpt>
      <trkpt lat="48.75277" lon="-0.60789">
        <ele>221.8</ele>
        <time>2011-05-09T15:20:26Z</time>
      </trkpt>
      <trkpt lat="48.75336" lon="-0.60754">
        <ele>221.2</ele>
        <time>2011-05-09T15:20:42Z</time>
      </trkpt>
      <trkpt lat="48.75387" lon="-0.6072">
        <ele>222.2</ele>
        <time>2011-05-09T15:20:58Z</time>
      </trkpt>
      <trkpt lat="48.75425" lon="-0.60698">
        <ele>221.2</ele>
        <time>2011-05-09T15:21:12Z</time>
      </trkpt>
      <trkpt lat="48.75449" lon="-0.60697">
        <ele>221.2</ele>
        <time>2011-05-09T15:21:22Z</time>
      </trkpt>
      <trkpt lat="48.75443" lon="-0.60722">
        <ele>220.8</ele>
        <time>2011-05-09T15:21:32Z</time>
      </trkpt>
      <trkpt lat="48.75435" lon="-0.60736">
        <ele>220.8</ele>
        <time>2011-05-09T15:21:36Z</time>
      </trkpt>
      <trkpt lat="48.7539" lon="-0.60785">
        <ele>221.2</ele>
        <time>2011-05-09T15:21:52Z</time>
      </trkpt>
      <trkpt lat="48.75339" lon="-0.6085">
        <ele>220.8</ele>
        <time>2011-05-09T15:22:10Z</time>
      </trkpt>
      <trkpt lat="48.7531" lon="-0.60913">
        <ele>221.2</ele>
        <time>2011-05-09T15:22:25Z</time>
      </trkpt>
      <trkpt lat="48.75298" lon="-0.60946">
        <ele>221.8</ele>
        <time>2011-05-09T15:22:33Z</time>
      </trkpt>
      <trkpt lat="48.75307" lon="-0.60964">
        <ele>221.2</ele>
        <time>2011-05-09T15:22:38Z</time>
      </trkpt>
      <trkpt lat="48.75311" lon="-0.60967">
        <ele>221.8</ele>
        <time>2011-05-09T15:22:39Z</time>
      </trkpt>
      <trkpt lat="48.75315" lon="-0.6097">
        <ele>222.2</ele>
        <time>2011-05-09T15:22:40Z</time>
      </trkpt>
      <trkpt lat="48.75319" lon="-0.60972">
        <ele>222.2</ele>
        <time>2011-05-09T15:22:41Z</time>
      </trkpt>
      <trkpt lat="48.75365" lon="-0.61007">
        <ele>222.2</ele>
        <time>2011-05-09T15:22:57Z</time>
      </trkpt>
      <trkpt lat="48.75373" lon="-0.61016">
        <ele>223.6</ele>
        <time>2011-05-09T15:23:00Z</time>
      </trkpt>
      <trkpt lat="48.75409" lon="-0.61042">
        <ele>223.2</ele>
        <time>2011-05-09T15:23:14Z</time>
      </trkpt>
      <trkpt lat="48.75423" lon="-0.61043">
        <ele>222.6</ele>
        <time>2011-05-09T15:23:20Z</time>
      </trkpt>
      <trkpt lat="48.75426" lon="-0.61039">
        <ele>222.6</ele>
        <time>2011-05-09T15:23:21Z</time>
      </trkpt>
      <trkpt lat="48.75428" lon="-0.61036">
        <ele>222.2</ele>
        <time>2011-05-09T15:23:22Z</time>
      </trkpt>
      <trkpt lat="48.7543" lon="-0.61032">
        <ele>222.6</ele>
        <time>2011-05-09T15:23:23Z</time>
      </trkpt>
      <trkpt lat="48.75432" lon="-0.61027">
        <ele>221.8</ele>
        <time>2011-05-09T15:23:24Z</time>
      </trkpt>
      <trkpt lat="48.75444" lon="-0.61005">
        <ele>221.8</ele>
        <time>2011-05-09T15:23:29Z</time>
      </trkpt>
      <trkpt lat="48.75447" lon="-0.61001">
        <ele>221.2</ele>
        <time>2011-05-09T15:23:30Z</time>
      </trkpt>
      <trkpt lat="48.75486" lon="-0.60942">
        <ele>218.4</ele>
        <time>2011-05-09T15:23:43Z</time>
      </trkpt>
      <trkpt lat="48.75514" lon="-0.60904">
        <ele>217.8</ele>
        <time>2011-05-09T15:23:52Z</time>
      </trkpt>
      <trkpt lat="48.75532" lon="-0.60898">
        <ele>217.4</ele>
        <time>2011-05-09T15:23:56Z</time>
      </trkpt>
      <trkpt lat="48.75582" lon="-0.60882">
        <ele>217.4</ele>
        <time>2011-05-09T15:24:09Z</time>
      </trkpt>
      <trkpt lat="48.7564" lon="-0.60847">
        <ele>215.4</ele>
        <time>2011-05-09T15:24:24Z</time>
      </trkpt>
      <trkpt lat="48.75671" lon="-0.60826">
        <ele>212.6</ele>
        <time>2011-05-09T15:24:31Z</time>
      </trkpt>
      <trkpt lat="48.75687" lon="-0.60821">
        <ele>211.2</ele>
        <time>2011-05-09T15:24:34Z</time>
      </trkpt>
      <trkpt lat="48.75752" lon="-0.60794">
        <ele>209.2</ele>
        <time>2011-05-09T15:24:46Z</time>
      </trkpt>
      <trkpt lat="48.75772" lon="-0.60785">
        <ele>209.8</ele>
        <time>2011-05-09T15:24:50Z</time>
      </trkpt>
      <trkpt lat="48.75826" lon="-0.60779">
        <ele>208.8</ele>
        <time>2011-05-09T15:25:03Z</time>
      </trkpt>
      <trkpt lat="48.7583" lon="-0.60783">
        <ele>208.2</ele>
        <time>2011-05-09T15:25:04Z</time>
      </trkpt>
      <trkpt lat="48.75834" lon="-0.60787">
        <ele>208.2</ele>
        <time>2011-05-09T15:25:05Z</time>
      </trkpt>
      <trkpt lat="48.75838" lon="-0.60789">
        <ele>208.2</ele>
        <time>2011-05-09T15:25:06Z</time>
      </trkpt>
      <trkpt lat="48.75866" lon="-0.60803">
        <ele>209.8</ele>
        <time>2011-05-09T15:25:16Z</time>
      </trkpt>
      <trkpt lat="48.75883" lon="-0.6082">
        <ele>208.8</ele>
        <time>2011-05-09T15:25:22Z</time>
      </trkpt>
      <trkpt lat="48.75888" lon="-0.60821">
        <ele>208.2</ele>
        <time>2011-05-09T15:25:23Z</time>
      </trkpt>
      <trkpt lat="48.75892" lon="-0.60823">
        <ele>207.4</ele>
        <time>2011-05-09T15:25:24Z</time>
      </trkpt>
      <trkpt lat="48.75902" lon="-0.60829">
        <ele>207.4</ele>
        <time>2011-05-09T15:25:26Z</time>
      </trkpt>
      <trkpt lat="48.75964" lon="-0.60858">
        <ele>204</ele>
        <time>2011-05-09T15:25:37Z</time>
      </trkpt>
      <trkpt lat="48.75985" lon="-0.60865">
        <ele>202</ele>
        <time>2011-05-09T15:25:40Z</time>
      </trkpt>
      <trkpt lat="48.75993" lon="-0.60865">
        <ele>201.6</ele>
        <time>2011-05-09T15:25:41Z</time>
      </trkpt>
      <trkpt lat="48.76" lon="-0.60864">
        <ele>201</ele>
        <time>2011-05-09T15:25:42Z</time>
      </trkpt>
      <trkpt lat="48.76008" lon="-0.60862">
        <ele>200.6</ele>
        <time>2011-05-09T15:25:43Z</time>
      </trkpt>
      <trkpt lat="48.76016" lon="-0.60859">
        <ele>199.6</ele>
        <time>2011-05-09T15:25:44Z</time>
      </trkpt>
      <trkpt lat="48.76024" lon="-0.60858">
        <ele>199.6</ele>
        <time>2011-05-09T15:25:45Z</time>
      </trkpt>
      <trkpt lat="48.76043" lon="-0.60853">
        <ele>199.6</ele>
        <time>2011-05-09T15:25:48Z</time>
      </trkpt>
      <trkpt lat="48.76047" lon="-0.6085">
        <ele>199.6</ele>
        <time>2011-05-09T15:25:49Z</time>
      </trkpt>
      <trkpt lat="48.76051" lon="-0.60846">
        <ele>200</ele>
        <time>2011-05-09T15:25:50Z</time>
      </trkpt>
      <trkpt lat="48.76055" lon="-0.60842">
        <ele>199.6</ele>
        <time>2011-05-09T15:25:51Z</time>
      </trkpt>
      <trkpt lat="48.76059" lon="-0.60837">
        <ele>199.2</ele>
        <time>2011-05-09T15:25:52Z</time>
      </trkpt>
      <trkpt lat="48.76062" lon="-0.60831">
        <ele>200</ele>
        <time>2011-05-09T15:25:53Z</time>
      </trkpt>
      <trkpt lat="48.76065" lon="-0.60825">
        <ele>199.2</ele>
        <time>2011-05-09T15:25:54Z</time>
      </trkpt>
      <trkpt lat="48.76096" lon="-0.60752">
        <ele>199.6</ele>
        <time>2011-05-09T15:26:08Z</time>
      </trkpt>
      <trkpt lat="48.76122" lon="-0.60683">
        <ele>199.6</ele>
        <time>2011-05-09T15:26:21Z</time>
      </trkpt>
      <trkpt lat="48.76131" lon="-0.60661">
        <ele>199.2</ele>
        <time>2011-05-09T15:26:25Z</time>
      </trkpt>
      <trkpt lat="48.76136" lon="-0.60645">
        <ele>199.2</ele>
        <time>2011-05-09T15:26:28Z</time>
      </trkpt>
      <trkpt lat="48.76138" lon="-0.60639">
        <ele>199.2</ele>
        <time>2011-05-09T15:26:29Z</time>
      </trkpt>
      <trkpt lat="48.7614" lon="-0.60634">
        <ele>199.6</ele>
        <time>2011-05-09T15:26:30Z</time>
      </trkpt>
      <trkpt lat="48.76157" lon="-0.60577">
        <ele>200</ele>
        <time>2011-05-09T15:26:41Z</time>
      </trkpt>
      <trkpt lat="48.7617" lon="-0.60528">
        <ele>200</ele>
        <time>2011-05-09T15:26:53Z</time>
      </trkpt>
      <trkpt lat="48.76184" lon="-0.60473">
        <ele>199.6</ele>
        <time>2011-05-09T15:27:07Z</time>
      </trkpt>
      <trkpt lat="48.76159" lon="-0.60459">
        <ele>202</ele>
        <time>2011-05-09T15:27:17Z</time>
      </trkpt>
      <trkpt lat="48.7613" lon="-0.60452">
        <ele>203.4</ele>
        <time>2011-05-09T15:27:28Z</time>
      </trkpt>
      <trkpt lat="48.76086" lon="-0.60442">
        <ele>204</ele>
        <time>2011-05-09T15:27:41Z</time>
      </trkpt>
      <trkpt lat="48.76035" lon="-0.60447">
        <ele>205.8</ele>
        <time>2011-05-09T15:27:55Z</time>
      </trkpt>
      <trkpt lat="48.75991" lon="-0.60444">
        <ele>206.8</ele>
        <time>2011-05-09T15:28:09Z</time>
      </trkpt>
      <trkpt lat="48.75945" lon="-0.6042">
        <ele>206.4</ele>
        <time>2011-05-09T15:28:24Z</time>
      </trkpt>
      <trkpt lat="48.7592" lon="-0.6037">
        <ele>208.2</ele>
        <time>2011-05-09T15:28:36Z</time>
      </trkpt>
      <trkpt lat="48.75907" lon="-0.60311">
        <ele>209.8</ele>
        <time>2011-05-09T15:28:51Z</time>
      </trkpt>
      <trkpt lat="48.75903" lon="-0.60301">
        <ele>209.8</ele>
        <time>2011-05-09T15:29:06Z</time>
      </trkpt>
      <trkpt lat="48.75903" lon="-0.60298">
        <ele>210.2</ele>
        <time>2011-05-09T15:29:27Z</time>
      </trkpt>
      <trkpt lat="48.75905" lon="-0.60295">
        <ele>209.8</ele>
        <time>2011-05-09T15:29:28Z</time>
      </trkpt>
      <trkpt lat="48.75906" lon="-0.60291">
        <ele>209.2</ele>
        <time>2011-05-09T15:29:29Z</time>
      </trkpt>
      <trkpt lat="48.75948" lon="-0.60237">
        <ele>208.8</ele>
        <time>2011-05-09T15:29:41Z</time>
      </trkpt>
      <trkpt lat="48.76" lon="-0.60167">
        <ele>209.8</ele>
        <time>2011-05-09T15:29:53Z</time>
      </trkpt>
      <trkpt lat="48.76062" lon="-0.60085">
        <ele>209.2</ele>
        <time>2011-05-09T15:30:06Z</time>
      </trkpt>
      <trkpt lat="48.76129" lon="-0.59998">
        <ele>210.2</ele>
        <time>2011-05-09T15:30:20Z</time>
      </trkpt>
      <trkpt lat="48.76213" lon="-0.59905">
        <ele>209.2</ele>
        <time>2011-05-09T15:30:37Z</time>
      </trkpt>
      <trkpt lat="48.76248" lon="-0.59869">
        <ele>208.2</ele>
        <time>2011-05-09T15:30:44Z</time>
      </trkpt>
      <trkpt lat="48.76252" lon="-0.59864">
        <ele>208.8</ele>
        <time>2011-05-09T15:30:45Z</time>
      </trkpt>
      <trkpt lat="48.76254" lon="-0.59859">
        <ele>208.8</ele>
        <time>2011-05-09T15:30:46Z</time>
      </trkpt>
      <trkpt lat="48.76257" lon="-0.59854">
        <ele>208.8</ele>
        <time>2011-05-09T15:30:47Z</time>
      </trkpt>
      <trkpt lat="48.7626" lon="-0.5985">
        <ele>208.2</ele>
        <time>2011-05-09T15:30:48Z</time>
      </trkpt>
      <trkpt lat="48.76263" lon="-0.59846">
        <ele>208.8</ele>
        <time>2011-05-09T15:30:49Z</time>
      </trkpt>
      <trkpt lat="48.76266" lon="-0.59843">
        <ele>208.8</ele>
        <time>2011-05-09T15:30:50Z</time>
      </trkpt>
      <trkpt lat="48.7627" lon="-0.59839">
        <ele>208.8</ele>
        <time>2011-05-09T15:30:51Z</time>
      </trkpt>
      <trkpt lat="48.76273" lon="-0.59834">
        <ele>207.8</ele>
        <time>2011-05-09T15:30:52Z</time>
      </trkpt>
      <trkpt lat="48.76274" lon="-0.59828">
        <ele>207.4</ele>
        <time>2011-05-09T15:30:53Z</time>
      </trkpt>
      <trkpt lat="48.76275" lon="-0.5982">
        <ele>207.4</ele>
        <time>2011-05-09T15:30:54Z</time>
      </trkpt>
      <trkpt lat="48.76275" lon="-0.59812">
        <ele>207.4</ele>
        <time>2011-05-09T15:30:55Z</time>
      </trkpt>
      <trkpt lat="48.76273" lon="-0.59803">
        <ele>206.8</ele>
        <time>2011-05-09T15:30:56Z</time>
      </trkpt>
      <trkpt lat="48.7627" lon="-0.59795">
        <ele>206.4</ele>
        <time>2011-05-09T15:30:57Z</time>
      </trkpt>
      <trkpt lat="48.76267" lon="-0.59786">
        <ele>205.8</ele>
        <time>2011-05-09T15:30:58Z</time>
      </trkpt>
      <trkpt lat="48.76251" lon="-0.5973">
        <ele>202</ele>
        <time>2011-05-09T15:31:03Z</time>
      </trkpt>
      <trkpt lat="48.76247" lon="-0.59718">
        <ele>201</ele>
        <time>2011-05-09T15:31:04Z</time>
      </trkpt>
      <trkpt lat="48.76241" lon="-0.59706">
        <ele>200.6</ele>
        <time>2011-05-09T15:31:05Z</time>
      </trkpt>
      <trkpt lat="48.76234" lon="-0.59695">
        <ele>199.2</ele>
        <time>2011-05-09T15:31:06Z</time>
      </trkpt>
      <trkpt lat="48.76225" lon="-0.59685">
        <ele>198.2</ele>
        <time>2011-05-09T15:31:07Z</time>
      </trkpt>
      <trkpt lat="48.76194" lon="-0.59637">
        <ele>196.2</ele>
        <time>2011-05-09T15:31:11Z</time>
      </trkpt>
      <trkpt lat="48.7615" lon="-0.59509">
        <ele>197.6</ele>
        <time>2011-05-09T15:31:21Z</time>
      </trkpt>
      <trkpt lat="48.76135" lon="-0.59466">
        <ele>198.6</ele>
        <time>2011-05-09T15:31:26Z</time>
      </trkpt>
      <trkpt lat="48.76098" lon="-0.59399">
        <ele>200</ele>
        <time>2011-05-09T15:31:38Z</time>
      </trkpt>
      <trkpt lat="48.76074" lon="-0.59339">
        <ele>200</ele>
        <time>2011-05-09T15:31:50Z</time>
      </trkpt>
      <trkpt lat="48.76071" lon="-0.59334">
        <ele>200.6</ele>
        <time>2011-05-09T15:31:51Z</time>
      </trkpt>
      <trkpt lat="48.76035" lon="-0.59259">
        <ele>197.2</ele>
        <time>2011-05-09T15:32:03Z</time>
      </trkpt>
      <trkpt lat="48.76021" lon="-0.59229">
        <ele>196.2</ele>
        <time>2011-05-09T15:32:07Z</time>
      </trkpt>
      <trkpt lat="48.75977" lon="-0.59154">
        <ele>194.4</ele>
        <time>2011-05-09T15:32:17Z</time>
      </trkpt>
      <trkpt lat="48.75973" lon="-0.59147">
        <ele>194.4</ele>
        <time>2011-05-09T15:32:18Z</time>
      </trkpt>
      <trkpt lat="48.75949" lon="-0.59112">
        <ele>195.2</ele>
        <time>2011-05-09T15:32:24Z</time>
      </trkpt>
      <trkpt lat="48.75946" lon="-0.59106">
        <ele>194.8</ele>
        <time>2011-05-09T15:32:25Z</time>
      </trkpt>
      <trkpt lat="48.75919" lon="-0.59048">
        <ele>195.2</ele>
        <time>2011-05-09T15:32:37Z</time>
      </trkpt>
      <trkpt lat="48.75919" lon="-0.59043">
        <ele>195.8</ele>
        <time>2011-05-09T15:32:38Z</time>
      </trkpt>
      <trkpt lat="48.75922" lon="-0.59038">
        <ele>195.8</ele>
        <time>2011-05-09T15:32:39Z</time>
      </trkpt>
      <trkpt lat="48.75924" lon="-0.59034">
        <ele>195.8</ele>
        <time>2011-05-09T15:32:40Z</time>
      </trkpt>
      <trkpt lat="48.75927" lon="-0.5903">
        <ele>195.8</ele>
        <time>2011-05-09T15:32:41Z</time>
      </trkpt>
      <trkpt lat="48.7593" lon="-0.59026">
        <ele>194.8</ele>
        <time>2011-05-09T15:32:42Z</time>
      </trkpt>
      <trkpt lat="48.75933" lon="-0.59023">
        <ele>195.2</ele>
        <time>2011-05-09T15:32:43Z</time>
      </trkpt>
      <trkpt lat="48.75947" lon="-0.59008">
        <ele>194.4</ele>
        <time>2011-05-09T15:32:47Z</time>
      </trkpt>
      <trkpt lat="48.75978" lon="-0.58958">
        <ele>193.4</ele>
        <time>2011-05-09T15:32:57Z</time>
      </trkpt>
      <trkpt lat="48.75985" lon="-0.58948">
        <ele>192.8</ele>
        <time>2011-05-09T15:32:59Z</time>
      </trkpt>
      <trkpt lat="48.75989" lon="-0.58943">
        <ele>192.4</ele>
        <time>2011-05-09T15:33:00Z</time>
      </trkpt>
      <trkpt lat="48.75991" lon="-0.58936">
        <ele>192.4</ele>
        <time>2011-05-09T15:33:01Z</time>
      </trkpt>
      <trkpt lat="48.75993" lon="-0.58929">
        <ele>192.4</ele>
        <time>2011-05-09T15:33:02Z</time>
      </trkpt>
      <trkpt lat="48.75994" lon="-0.58922">
        <ele>192</ele>
        <time>2011-05-09T15:33:03Z</time>
      </trkpt>
      <trkpt lat="48.75993" lon="-0.58914">
        <ele>192</ele>
        <time>2011-05-09T15:33:04Z</time>
      </trkpt>
      <trkpt lat="48.75991" lon="-0.58907">
        <ele>192</ele>
        <time>2011-05-09T15:33:05Z</time>
      </trkpt>
      <trkpt lat="48.7599" lon="-0.58901">
        <ele>191.4</ele>
        <time>2011-05-09T15:33:06Z</time>
      </trkpt>
      <trkpt lat="48.75987" lon="-0.58894">
        <ele>192</ele>
        <time>2011-05-09T15:33:07Z</time>
      </trkpt>
      <trkpt lat="48.75985" lon="-0.58888">
        <ele>192</ele>
        <time>2011-05-09T15:33:08Z</time>
      </trkpt>
      <trkpt lat="48.75982" lon="-0.58883">
        <ele>192.4</ele>
        <time>2011-05-09T15:33:09Z</time>
      </trkpt>
      <trkpt lat="48.75969" lon="-0.58856">
        <ele>193.8</ele>
        <time>2011-05-09T15:33:15Z</time>
      </trkpt>
      <trkpt lat="48.7597" lon="-0.58849">
        <ele>194.8</ele>
        <time>2011-05-09T15:33:16Z</time>
      </trkpt>
      <trkpt lat="48.75971" lon="-0.58843">
        <ele>194.8</ele>
        <time>2011-05-09T15:33:17Z</time>
      </trkpt>
      <trkpt lat="48.75973" lon="-0.58838">
        <ele>194.4</ele>
        <time>2011-05-09T15:33:18Z</time>
      </trkpt>
      <trkpt lat="48.75976" lon="-0.58833">
        <ele>194.4</ele>
        <time>2011-05-09T15:33:19Z</time>
      </trkpt>
      <trkpt lat="48.7598" lon="-0.58829">
        <ele>194.8</ele>
        <time>2011-05-09T15:33:20Z</time>
      </trkpt>
      <trkpt lat="48.75983" lon="-0.58825">
        <ele>194.8</ele>
        <time>2011-05-09T15:33:21Z</time>
      </trkpt>
      <trkpt lat="48.76" lon="-0.58808">
        <ele>195.2</ele>
        <time>2011-05-09T15:33:26Z</time>
      </trkpt>
      <trkpt lat="48.76045" lon="-0.58757">
        <ele>195.2</ele>
        <time>2011-05-09T15:33:40Z</time>
      </trkpt>
      <trkpt lat="48.76062" lon="-0.58695">
        <ele>195.8</ele>
        <time>2011-05-09T15:33:52Z</time>
      </trkpt>
      <trkpt lat="48.76064" lon="-0.58656">
        <ele>194.8</ele>
        <time>2011-05-09T15:34:00Z</time>
      </trkpt>
      <trkpt lat="48.76062" lon="-0.58653">
        <ele>194.4</ele>
        <time>2011-05-09T15:34:01Z</time>
      </trkpt>
      <trkpt lat="48.7606" lon="-0.5865">
        <ele>194.4</ele>
        <time>2011-05-09T15:34:02Z</time>
      </trkpt>
      <trkpt lat="48.7603" lon="-0.58641">
        <ele>193.4</ele>
        <time>2011-05-09T15:34:11Z</time>
      </trkpt>
      <trkpt lat="48.76026" lon="-0.5864">
        <ele>193.8</ele>
        <time>2011-05-09T15:34:12Z</time>
      </trkpt>
      <trkpt lat="48.75975" lon="-0.58629">
        <ele>192.4</ele>
        <time>2011-05-09T15:34:23Z</time>
      </trkpt>
      <trkpt lat="48.75919" lon="-0.58613">
        <ele>191</ele>
        <time>2011-05-09T15:34:34Z</time>
      </trkpt>
      <trkpt lat="48.7591" lon="-0.58611">
        <ele>190.4</ele>
        <time>2011-05-09T15:34:36Z</time>
      </trkpt>
      <trkpt lat="48.75888" lon="-0.58604">
        <ele>190</ele>
        <time>2011-05-09T15:34:41Z</time>
      </trkpt>
      <trkpt lat="48.75884" lon="-0.58602">
        <ele>190</ele>
        <time>2011-05-09T15:34:42Z</time>
      </trkpt>
      <trkpt lat="48.7588" lon="-0.58601">
        <ele>190.4</ele>
        <time>2011-05-09T15:34:43Z</time>
      </trkpt>
      <trkpt lat="48.75877" lon="-0.58601">
        <ele>190.4</ele>
        <time>2011-05-09T15:34:44Z</time>
      </trkpt>
      <trkpt lat="48.75873" lon="-0.586">
        <ele>189.6</ele>
        <time>2011-05-09T15:34:45Z</time>
      </trkpt>
      <trkpt lat="48.7587" lon="-0.58599">
        <ele>190</ele>
        <time>2011-05-09T15:34:46Z</time>
      </trkpt>
      <trkpt lat="48.75826" lon="-0.58581">
        <ele>189.6</ele>
        <time>2011-05-09T15:35:01Z</time>
      </trkpt>
      <trkpt lat="48.75822" lon="-0.58582">
        <ele>190</ele>
        <time>2011-05-09T15:35:04Z</time>
      </trkpt>
      <trkpt lat="48.75821" lon="-0.58583">
        <ele>190</ele>
        <time>2011-05-09T15:35:05Z</time>
      </trkpt>
      <trkpt lat="48.75819" lon="-0.58583">
        <ele>190.4</ele>
        <time>2011-05-09T15:35:06Z</time>
      </trkpt>
      <trkpt lat="48.75817" lon="-0.58582">
        <ele>190</ele>
        <time>2011-05-09T15:35:07Z</time>
      </trkpt>
      <trkpt lat="48.75815" lon="-0.58581">
        <ele>189.6</ele>
        <time>2011-05-09T15:35:08Z</time>
      </trkpt>
      <trkpt lat="48.75812" lon="-0.5858">
        <ele>189.6</ele>
        <time>2011-05-09T15:35:09Z</time>
      </trkpt>
      <trkpt lat="48.75779" lon="-0.5857">
        <ele>190.4</ele>
        <time>2011-05-09T15:35:19Z</time>
      </trkpt>
      <trkpt lat="48.75744" lon="-0.58559">
        <ele>189.6</ele>
        <time>2011-05-09T15:35:31Z</time>
      </trkpt>
      <trkpt lat="48.75705" lon="-0.58545">
        <ele>187.6</ele>
        <time>2011-05-09T15:35:43Z</time>
      </trkpt>
      <trkpt lat="48.75692" lon="-0.58538">
        <ele>185.2</ele>
        <time>2011-05-09T15:35:46Z</time>
      </trkpt>
      <trkpt lat="48.75682" lon="-0.58532">
        <ele>183.8</ele>
        <time>2011-05-09T15:35:48Z</time>
      </trkpt>
      <trkpt lat="48.75665" lon="-0.58517">
        <ele>184.8</ele>
        <time>2011-05-09T15:35:54Z</time>
      </trkpt>
      <trkpt lat="48.75663" lon="-0.58516">
        <ele>184.2</ele>
        <time>2011-05-09T15:35:55Z</time>
      </trkpt>
      <trkpt lat="48.75661" lon="-0.58515">
        <ele>184.8</ele>
        <time>2011-05-09T15:35:56Z</time>
      </trkpt>
      <trkpt lat="48.75658" lon="-0.58515">
        <ele>184.2</ele>
        <time>2011-05-09T15:35:57Z</time>
      </trkpt>
      <trkpt lat="48.75655" lon="-0.58515">
        <ele>183.8</ele>
        <time>2011-05-09T15:35:58Z</time>
      </trkpt>
      <trkpt lat="48.75652" lon="-0.58515">
        <ele>184.8</ele>
        <time>2011-05-09T15:35:59Z</time>
      </trkpt>
      <trkpt lat="48.7565" lon="-0.58514">
        <ele>184.8</ele>
        <time>2011-05-09T15:36:00Z</time>
      </trkpt>
      <trkpt lat="48.75647" lon="-0.58514">
        <ele>184.2</ele>
        <time>2011-05-09T15:36:01Z</time>
      </trkpt>
      <trkpt lat="48.75645" lon="-0.58513">
        <ele>184.2</ele>
        <time>2011-05-09T15:36:02Z</time>
      </trkpt>
      <trkpt lat="48.75642" lon="-0.58513">
        <ele>184.2</ele>
        <time>2011-05-09T15:36:03Z</time>
      </trkpt>
      <trkpt lat="48.75609" lon="-0.585">
        <ele>187.2</ele>
        <time>2011-05-09T15:36:17Z</time>
      </trkpt>
      <trkpt lat="48.75575" lon="-0.58492">
        <ele>188.6</ele>
        <time>2011-05-09T15:36:30Z</time>
      </trkpt>
      <trkpt lat="48.75544" lon="-0.58459">
        <ele>190.4</ele>
        <time>2011-05-09T15:36:43Z</time>
      </trkpt>
      <trkpt lat="48.75502" lon="-0.58412">
        <ele>192.4</ele>
        <time>2011-05-09T15:36:58Z</time>
      </trkpt>
      <trkpt lat="48.75476" lon="-0.58368">
        <ele>194.4</ele>
        <time>2011-05-09T15:37:11Z</time>
      </trkpt>
      <trkpt lat="48.75444" lon="-0.58311">
        <ele>193.8</ele>
        <time>2011-05-09T15:37:27Z</time>
      </trkpt>
      <trkpt lat="48.7542" lon="-0.58265">
        <ele>194.4</ele>
        <time>2011-05-09T15:37:41Z</time>
      </trkpt>
      <trkpt lat="48.75389" lon="-0.58211">
        <ele>193.4</ele>
        <time>2011-05-09T15:37:56Z</time>
      </trkpt>
      <trkpt lat="48.75367" lon="-0.58166">
        <ele>192.8</ele>
        <time>2011-05-09T15:38:09Z</time>
      </trkpt>
      <trkpt lat="48.75367" lon="-0.58161">
        <ele>192.4</ele>
        <time>2011-05-09T15:38:11Z</time>
      </trkpt>
      <trkpt lat="48.75372" lon="-0.58154">
        <ele>192.4</ele>
        <time>2011-05-09T15:38:15Z</time>
      </trkpt>
      <trkpt lat="48.75394" lon="-0.5813">
        <ele>192</ele>
        <time>2011-05-09T15:38:30Z</time>
      </trkpt>
      <trkpt lat="48.75412" lon="-0.58114">
        <ele>191</ele>
        <time>2011-05-09T15:38:43Z</time>
      </trkpt>
      <trkpt lat="48.75414" lon="-0.58111">
        <ele>190.4</ele>
        <time>2011-05-09T15:39:01Z</time>
      </trkpt>
      <trkpt lat="48.75415" lon="-0.58111">
        <ele>190.4</ele>
        <time>2011-05-09T15:39:42Z</time>
      </trkpt>
      <trkpt lat="48.75417" lon="-0.5811">
        <ele>191</ele>
        <time>2011-05-09T15:39:50Z</time>
      </trkpt>
      <trkpt lat="48.75419" lon="-0.58108">
        <ele>190.4</ele>
        <time>2011-05-09T15:39:52Z</time>
      </trkpt>
      <trkpt lat="48.75435" lon="-0.58098">
        <ele>187.6</ele>
        <time>2011-05-09T15:40:08Z</time>
      </trkpt>
      <trkpt lat="48.75443" lon="-0.58091">
        <ele>186.6</ele>
        <time>2011-05-09T15:40:12Z</time>
      </trkpt>
      <trkpt lat="48.75454" lon="-0.5808">
        <ele>185.6</ele>
        <time>2011-05-09T15:40:17Z</time>
      </trkpt>
      <trkpt lat="48.75476" lon="-0.58063">
        <ele>183.8</ele>
        <time>2011-05-09T15:40:28Z</time>
      </trkpt>
      <trkpt lat="48.75466" lon="-0.58051">
        <ele>184.2</ele>
        <time>2011-05-09T15:40:33Z</time>
      </trkpt>
      <trkpt lat="48.75429" lon="-0.58014">
        <ele>186.2</ele>
        <time>2011-05-09T15:40:46Z</time>
      </trkpt>
      <trkpt lat="48.75393" lon="-0.57958">
        <ele>185.6</ele>
        <time>2011-05-09T15:41:01Z</time>
      </trkpt>
      <trkpt lat="48.75367" lon="-0.57922">
        <ele>187.6</ele>
        <time>2011-05-09T15:41:14Z</time>
      </trkpt>
      <trkpt lat="48.75343" lon="-0.57905">
        <ele>186.6</ele>
        <time>2011-05-09T15:41:30Z</time>
      </trkpt>
      <trkpt lat="48.75338" lon="-0.57901">
        <ele>186.6</ele>
        <time>2011-05-09T15:41:34Z</time>
      </trkpt>
      <trkpt lat="48.7534" lon="-0.57891">
        <ele>185.6</ele>
        <time>2011-05-09T15:41:38Z</time>
      </trkpt>
      <trkpt lat="48.75347" lon="-0.57871">
        <ele>184.8</ele>
        <time>2011-05-09T15:41:44Z</time>
      </trkpt>
      <trkpt lat="48.75351" lon="-0.57831">
        <ele>182.4</ele>
        <time>2011-05-09T15:41:56Z</time>
      </trkpt>
      <trkpt lat="48.75364" lon="-0.57799">
        <ele>182.8</ele>
        <time>2011-05-09T15:42:07Z</time>
      </trkpt>
      <trkpt lat="48.75361" lon="-0.57787">
        <ele>183.2</ele>
        <time>2011-05-09T15:42:11Z</time>
      </trkpt>
      <trkpt lat="48.75315" lon="-0.57752">
        <ele>181.8</ele>
        <time>2011-05-09T15:42:28Z</time>
      </trkpt>
      <trkpt lat="48.75299" lon="-0.57711">
        <ele>182.4</ele>
        <time>2011-05-09T15:42:39Z</time>
      </trkpt>
      <trkpt lat="48.75302" lon="-0.5764">
        <ele>181.8</ele>
        <time>2011-05-09T15:42:52Z</time>
      </trkpt>
      <trkpt lat="48.75304" lon="-0.57634">
        <ele>181.8</ele>
        <time>2011-05-09T15:42:53Z</time>
      </trkpt>
      <trkpt lat="48.75304" lon="-0.57612">
        <ele>182.4</ele>
        <time>2011-05-09T15:42:59Z</time>
      </trkpt>
      <trkpt lat="48.75298" lon="-0.5761">
        <ele>182.8</ele>
        <time>2011-05-09T15:43:00Z</time>
      </trkpt>
      <trkpt lat="48.75295" lon="-0.57608">
        <ele>182.8</ele>
        <time>2011-05-09T15:43:01Z</time>
      </trkpt>
      <trkpt lat="48.75291" lon="-0.57604">
        <ele>182.8</ele>
        <time>2011-05-09T15:43:02Z</time>
      </trkpt>
      <trkpt lat="48.75288" lon="-0.576">
        <ele>182.8</ele>
        <time>2011-05-09T15:43:03Z</time>
      </trkpt>
      <trkpt lat="48.75285" lon="-0.57595">
        <ele>182.8</ele>
        <time>2011-05-09T15:43:04Z</time>
      </trkpt>
      <trkpt lat="48.75279" lon="-0.5759">
        <ele>183.2</ele>
        <time>2011-05-09T15:43:05Z</time>
      </trkpt>
      <trkpt lat="48.75277" lon="-0.57584">
        <ele>183.2</ele>
        <time>2011-05-09T15:43:06Z</time>
      </trkpt>
      <trkpt lat="48.75275" lon="-0.57578">
        <ele>183.2</ele>
        <time>2011-05-09T15:43:07Z</time>
      </trkpt>
      <trkpt lat="48.75274" lon="-0.57572">
        <ele>183.2</ele>
        <time>2011-05-09T15:43:08Z</time>
      </trkpt>
      <trkpt lat="48.75241" lon="-0.57551">
        <ele>183.2</ele>
        <time>2011-05-09T15:43:19Z</time>
      </trkpt>
      <trkpt lat="48.75221" lon="-0.57547">
        <ele>184.2</ele>
        <time>2011-05-09T15:43:31Z</time>
      </trkpt>
      <trkpt lat="48.75184" lon="-0.57535">
        <ele>183.8</ele>
        <time>2011-05-09T15:43:43Z</time>
      </trkpt>
      <trkpt lat="48.7514" lon="-0.57522">
        <ele>183.8</ele>
        <time>2011-05-09T15:43:58Z</time>
      </trkpt>
      <trkpt lat="48.75097" lon="-0.57508">
        <ele>185.2</ele>
        <time>2011-05-09T15:44:11Z</time>
      </trkpt>
      <trkpt lat="48.75061" lon="-0.57499">
        <ele>185.6</ele>
        <time>2011-05-09T15:44:25Z</time>
      </trkpt>
      <trkpt lat="48.75038" lon="-0.57476">
        <ele>185.6</ele>
        <time>2011-05-09T15:44:38Z</time>
      </trkpt>
      <trkpt lat="48.75048" lon="-0.57423">
        <ele>186.2</ele>
        <time>2011-05-09T15:44:52Z</time>
      </trkpt>
      <trkpt lat="48.75048" lon="-0.57412">
        <ele>185.2</ele>
        <time>2011-05-09T15:44:57Z</time>
      </trkpt>
      <trkpt lat="48.75043" lon="-0.57407">
        <ele>184.2</ele>
        <time>2011-05-09T15:45:02Z</time>
      </trkpt>
      <trkpt lat="48.75016" lon="-0.57371">
        <ele>184.2</ele>
        <time>2011-05-09T15:45:13Z</time>
      </trkpt>
      <trkpt lat="48.74983" lon="-0.57344">
        <ele>184.2</ele>
        <time>2011-05-09T15:45:29Z</time>
      </trkpt>
      <trkpt lat="48.74972" lon="-0.57344">
        <ele>184.2</ele>
        <time>2011-05-09T15:45:35Z</time>
      </trkpt>
      <trkpt lat="48.74966" lon="-0.57358">
        <ele>184.8</ele>
        <time>2011-05-09T15:45:41Z</time>
      </trkpt>
      <trkpt lat="48.74945" lon="-0.5741">
        <ele>184.8</ele>
        <time>2011-05-09T15:45:56Z</time>
      </trkpt>
      <trkpt lat="48.74923" lon="-0.57383">
        <ele>184.2</ele>
        <time>2011-05-09T15:46:05Z</time>
      </trkpt>
      <trkpt lat="48.7488" lon="-0.5734">
        <ele>185.2</ele>
        <time>2011-05-09T15:46:20Z</time>
      </trkpt>
      <trkpt lat="48.74832" lon="-0.57293">
        <ele>185.2</ele>
        <time>2011-05-09T15:46:34Z</time>
      </trkpt>
      <trkpt lat="48.7479" lon="-0.57252">
        <ele>186.2</ele>
        <time>2011-05-09T15:46:50Z</time>
      </trkpt>
      <trkpt lat="48.74775" lon="-0.57241">
        <ele>186.2</ele>
        <time>2011-05-09T15:47:01Z</time>
      </trkpt>
      <trkpt lat="48.74775" lon="-0.57239">
        <ele>186.6</ele>
        <time>2011-05-09T15:47:02Z</time>
      </trkpt>
      <trkpt lat="48.74774" lon="-0.57236">
        <ele>186.2</ele>
        <time>2011-05-09T15:47:03Z</time>
      </trkpt>
      <trkpt lat="48.74772" lon="-0.5723">
        <ele>186.2</ele>
        <time>2011-05-09T15:47:07Z</time>
      </trkpt>
      <trkpt lat="48.74772" lon="-0.57227">
        <ele>186.2</ele>
        <time>2011-05-09T15:47:08Z</time>
      </trkpt>
      <trkpt lat="48.74772" lon="-0.57225">
        <ele>186.6</ele>
        <time>2011-05-09T15:47:09Z</time>
      </trkpt>
      <trkpt lat="48.74781" lon="-0.57198">
        <ele>186.2</ele>
        <time>2011-05-09T15:47:23Z</time>
      </trkpt>
      <trkpt lat="48.74781" lon="-0.57198">
        <ele>186.6</ele>
        <time>2011-05-09T15:47:37Z</time>
      </trkpt>
      <trkpt lat="48.74781" lon="-0.57206">
        <ele>185.2</ele>
        <time>2011-05-09T15:47:49Z</time>
      </trkpt>
      <trkpt lat="48.74794" lon="-0.57214">
        <ele>184.2</ele>
        <time>2011-05-09T15:47:57Z</time>
      </trkpt>
      <trkpt lat="48.74796" lon="-0.57214">
        <ele>185.2</ele>
        <time>2011-05-09T15:48:22Z</time>
      </trkpt>
      <trkpt lat="48.74796" lon="-0.57215">
        <ele>184.8</ele>
        <time>2011-05-09T15:48:48Z</time>
      </trkpt>
      <trkpt lat="48.74796" lon="-0.57215">
        <ele>184.8</ele>
        <time>2011-05-09T15:49:10Z</time>
      </trkpt>
      <trkpt lat="48.74794" lon="-0.57214">
        <ele>183.8</ele>
        <time>2011-05-09T15:49:40Z</time>
      </trkpt>
      <trkpt lat="48.74794" lon="-0.57214">
        <ele>183.8</ele>
        <time>2011-05-09T15:49:47Z</time>
      </trkpt>
    </trkseg>
  </trk>
</gpx>